<?xml version='1.0' encoding='UTF-8'?><gpx version="1.1" creator="JPX - https://github.com/jenetics/jpx" xmlns="http://www.topografix.com/GPX/1/1"><trk><trkseg><trkpt lat="48.83875819514701" lon="2.4009618968798003"><ele>54.0</ele><time>2026-03-24T15:53:46Z</time></trkpt><trkpt lat="48.838840522141815" lon="2.400907741907197"><ele>54.0</ele><time>2026-03-24T15:53:48Z</time></trkpt><trkpt lat="48.83892411715889" lon="2.4008322866476606"><ele>54.0</ele><time>2026-03-24T15:53:50Z</time></trkpt><trkpt lat="48.83901093736643" lon="2.4007522485054213"><ele>54.0</ele><time>2026-03-24T15:53:52Z</time></trkpt><trkpt lat="48.839097446929706" lon="2.4006961797909407"><ele>54.0</ele><time>2026-03-24T15:53:54Z</time></trkpt><trkpt lat="48.83915851782647" lon="2.400664550040713"><ele>54.0</ele><time>2026-03-24T15:53:56Z</time></trkpt><trkpt lat="48.839222422623145" lon="2.40060394610246"><ele>54.0</ele><time>2026-03-24T15:53:59Z</time></trkpt><trkpt lat="48.839292375410416" lon="2.400532482312"><ele>54.00000000000001</ele><time>2026-03-24T15:54:01Z</time></trkpt><trkpt lat="48.839347925587724" lon="2.4004420490341594"><ele>54.00000000000001</ele><time>2026-03-24T15:54:03Z</time></trkpt><trkpt lat="48.83943502783105" lon="2.400360467926896"><ele>54.0</ele><time>2026-03-24T15:54:05Z</time></trkpt><trkpt lat="48.83949035999796" lon="2.4002808241992506"><ele>54.0</ele><time>2026-03-24T15:54:08Z</time></trkpt><trkpt lat="48.839654776669136" lon="2.400326144410378"><ele>54.2</ele><time>2026-03-24T15:54:15Z</time></trkpt><trkpt lat="48.83973338854573" lon="2.4004133637030765"><ele>54.400000000000006</ele><time>2026-03-24T15:54:17Z</time></trkpt><trkpt lat="48.839813595454636" lon="2.4004886349471546"><ele>54.6</ele><time>2026-03-24T15:54:19Z</time></trkpt><trkpt lat="48.839900381289254" lon="2.400525177587792"><ele>54.8</ele><time>2026-03-24T15:54:21Z</time></trkpt><trkpt lat="48.84001735032025" lon="2.4005693643402295"><ele>55.0</ele><time>2026-03-24T15:54:23Z</time></trkpt><trkpt lat="48.84007788830644" lon="2.4005958084031414"><ele>54.8</ele><time>2026-03-24T15:54:24Z</time></trkpt><trkpt lat="48.84019306659041" lon="2.4006570343768185"><ele>54.6</ele><time>2026-03-24T15:54:26Z</time></trkpt><trkpt lat="48.84031241228857" lon="2.4007198469055346"><ele>54.400000000000006</ele><time>2026-03-24T15:54:28Z</time></trkpt><trkpt lat="48.84037393670411" lon="2.400746421012623"><ele>54.2</ele><time>2026-03-24T15:54:29Z</time></trkpt><trkpt lat="48.840481765116294" lon="2.4007860613667154"><ele>54.0</ele><time>2026-03-24T15:54:31.001Z</time></trkpt><trkpt lat="48.84060430360784" lon="2.4008296187797455"><ele>54.0</ele><time>2026-03-24T15:54:33.001Z</time></trkpt><trkpt lat="48.840671644173796" lon="2.400853280167515"><ele>54.00000000000001</ele><time>2026-03-24T15:54:34.001Z</time></trkpt><trkpt lat="48.84078222018145" lon="2.4008902586560708"><ele>54.00000000000001</ele><time>2026-03-24T15:54:36.001Z</time></trkpt><trkpt lat="48.840901638084986" lon="2.400941794659614"><ele>54.0</ele><time>2026-03-24T15:54:38.001Z</time></trkpt><trkpt lat="48.84101371780853" lon="2.4009837388065285"><ele>54.0</ele><time>2026-03-24T15:54:40.001Z</time></trkpt><trkpt lat="48.84111504654477" lon="2.4010210057466375"><ele>54.2</ele><time>2026-03-24T15:54:42.001Z</time></trkpt><trkpt lat="48.84121467250238" lon="2.4010568741957856"><ele>54.400000000000006</ele><time>2026-03-24T15:54:44.001Z</time></trkpt><trkpt lat="48.84130768579489" lon="2.4010897332829844"><ele>54.6</ele><time>2026-03-24T15:54:46.001Z</time></trkpt><trkpt lat="48.84139147963409" lon="2.4011144913663616"><ele>54.8</ele><time>2026-03-24T15:54:48.001Z</time></trkpt><trkpt lat="48.841503640661564" lon="2.4011668220231193"><ele>55.0</ele><time>2026-03-24T15:54:50.001Z</time></trkpt><trkpt lat="48.84162481367262" lon="2.4012187356472645"><ele>54.99999999999999</ele><time>2026-03-24T15:54:52.001Z</time></trkpt><trkpt lat="48.84173384040012" lon="2.4012642909153192"><ele>55.0</ele><time>2026-03-24T15:54:54.001Z</time></trkpt><trkpt lat="48.841846843200535" lon="2.401309755633771"><ele>55.0</ele><time>2026-03-24T15:54:56.001Z</time></trkpt><trkpt lat="48.841908619765654" lon="2.401334754684218"><ele>55.0</ele><time>2026-03-24T15:54:57.001Z</time></trkpt><trkpt lat="48.84197375253288" lon="2.401351375834087"><ele>54.99999999999999</ele><time>2026-03-24T15:54:58.001Z</time></trkpt><trkpt lat="48.84204188576305" lon="2.4013754117906516"><ele>55.0</ele><time>2026-03-24T15:54:59.001Z</time></trkpt><trkpt lat="48.842156993260225" lon="2.4013849816839756"><ele>55.33333333333333</ele><time>2026-03-24T15:55:01.001Z</time></trkpt><trkpt lat="48.84223647126641" lon="2.401398432297071"><ele>55.666666666666664</ele><time>2026-03-24T15:55:02.001Z</time></trkpt><trkpt lat="48.84235089760635" lon="2.4014570094469496"><ele>56.0</ele><time>2026-03-24T15:55:04.001Z</time></trkpt><trkpt lat="48.842417808367095" lon="2.401479071636545"><ele>56.33333333333333</ele><time>2026-03-24T15:55:05.001Z</time></trkpt><trkpt lat="48.84249158098287" lon="2.4015039068084385"><ele>56.666666666666664</ele><time>2026-03-24T15:55:06.001Z</time></trkpt><trkpt lat="48.84256198954515" lon="2.401532733090219"><ele>57.0</ele><time>2026-03-24T15:55:07.001Z</time></trkpt><trkpt lat="48.84263797936535" lon="2.401578610234247"><ele>56.0</ele><time>2026-03-24T15:55:08.001Z</time></trkpt><trkpt lat="48.84270583883448" lon="2.4016042998192257"><ele>55.0</ele><time>2026-03-24T15:55:09.001Z</time></trkpt><trkpt lat="48.84281710656128" lon="2.401645016780634"><ele>54.0</ele><time>2026-03-24T15:55:11.001Z</time></trkpt><trkpt lat="48.84292331046798" lon="2.401680897950869"><ele>53.0</ele><time>2026-03-24T15:55:13.001Z</time></trkpt><trkpt lat="48.84304419272517" lon="2.401725461089341"><ele>52.0</ele><time>2026-03-24T15:55:15.001Z</time></trkpt><trkpt lat="48.843110061531355" lon="2.4017492116539727"><ele>51.99999999999999</ele><time>2026-03-24T15:55:16.001Z</time></trkpt><trkpt lat="48.84317191098357" lon="2.4017680992002113"><ele>52.0</ele><time>2026-03-24T15:55:17.001Z</time></trkpt><trkpt lat="48.84324253120563" lon="2.4017991199407094"><ele>52.0</ele><time>2026-03-24T15:55:18.001Z</time></trkpt><trkpt lat="48.843312603266526" lon="2.401822126231223"><ele>52.0</ele><time>2026-03-24T15:55:19.001Z</time></trkpt><trkpt lat="48.84339169700494" lon="2.4018564647436516"><ele>51.99999999999999</ele><time>2026-03-24T15:55:20.001Z</time></trkpt><trkpt lat="48.84347652901152" lon="2.401888219374467"><ele>52.0</ele><time>2026-03-24T15:55:21.001Z</time></trkpt><trkpt lat="48.84355615294957" lon="2.401921551756012"><ele>51.714285714285715</ele><time>2026-03-24T15:55:22.001Z</time></trkpt><trkpt lat="48.84363267572946" lon="2.401958966171437"><ele>51.42857142857143</ele><time>2026-03-24T15:55:23.001Z</time></trkpt><trkpt lat="48.84370551600719" lon="2.4019790004435433"><ele>51.142857142857146</ele><time>2026-03-24T15:55:24.001Z</time></trkpt><trkpt lat="48.84376919824257" lon="2.4019944639831454"><ele>50.85714285714286</ele><time>2026-03-24T15:55:25.001Z</time></trkpt><trkpt lat="48.84383449016729" lon="2.4020228639580252"><ele>50.57142857142857</ele><time>2026-03-24T15:55:26.001Z</time></trkpt><trkpt lat="48.843905739520984" lon="2.402054126324286"><ele>50.28571428571429</ele><time>2026-03-24T15:55:27.001Z</time></trkpt><trkpt lat="48.843972472622724" lon="2.4020869822904434"><ele>50.0</ele><time>2026-03-24T15:55:28.001Z</time></trkpt><trkpt lat="48.8440417840515" lon="2.40210735688027"><ele>50.00000000000001</ele><time>2026-03-24T15:55:29.001Z</time></trkpt><trkpt lat="48.84411774193961" lon="2.402138434410869"><ele>50.0</ele><time>2026-03-24T15:55:30.001Z</time></trkpt><trkpt lat="48.84419143578932" lon="2.402163588347625"><ele>50.0</ele><time>2026-03-24T15:55:31.001Z</time></trkpt><trkpt lat="48.84425960239878" lon="2.402182363575826"><ele>50.0</ele><time>2026-03-24T15:55:32.001Z</time></trkpt><trkpt lat="48.844327481087355" lon="2.4022067091584662"><ele>50.00000000000001</ele><time>2026-03-24T15:55:33Z</time></trkpt><trkpt lat="48.84445039976741" lon="2.40225051083722"><ele>50.0</ele><time>2026-03-24T15:55:35Z</time></trkpt><trkpt lat="48.844549216469126" lon="2.4022733645874945"><ele>50.66666666666667</ele><time>2026-03-24T15:55:37Z</time></trkpt><trkpt lat="48.84463708419187" lon="2.4023092787761318"><ele>51.333333333333336</ele><time>2026-03-24T15:55:39Z</time></trkpt><trkpt lat="48.844741260551295" lon="2.4023468074779717"><ele>52.0</ele><time>2026-03-24T15:55:41Z</time></trkpt><trkpt lat="48.844800466494576" lon="2.4023831182885087"><ele>52.66666666666667</ele><time>2026-03-24T15:55:43Z</time></trkpt><trkpt lat="48.84485668072382" lon="2.4024706011310255"><ele>53.333333333333336</ele><time>2026-03-24T15:55:45Z</time></trkpt><trkpt lat="48.84495023121532" lon="2.4025273241472873"><ele>54.0</ele><time>2026-03-24T15:55:47Z</time></trkpt><trkpt lat="48.845071902918924" lon="2.402450475054426"><ele>54.0</ele><time>2026-03-24T15:55:49Z</time></trkpt><trkpt lat="48.84512342974108" lon="2.4023946244488936"><ele>54.0</ele><time>2026-03-24T15:55:50Z</time></trkpt><trkpt lat="48.84517525032929" lon="2.402333027118006"><ele>54.0</ele><time>2026-03-24T15:55:51Z</time></trkpt><trkpt lat="48.845234754678025" lon="2.4022427599833067"><ele>54.0</ele><time>2026-03-24T15:55:53Z</time></trkpt><trkpt lat="48.84528841960591" lon="2.4021779410799127"><ele>54.0</ele><time>2026-03-24T15:56:07Z</time></trkpt><trkpt lat="48.84533956000941" lon="2.4020914153255846"><ele>54.0</ele><time>2026-03-24T15:56:09Z</time></trkpt><trkpt lat="48.84541772966376" lon="2.401975113675106"><ele>53.6</ele><time>2026-03-24T15:56:11Z</time></trkpt><trkpt lat="48.84549941924882" lon="2.4018549514864707"><ele>53.2</ele><time>2026-03-24T15:56:13Z</time></trkpt><trkpt lat="48.845591435567755" lon="2.401714068958357"><ele>52.800000000000004</ele><time>2026-03-24T15:56:15Z</time></trkpt><trkpt lat="48.84564132679556" lon="2.4016396368945703"><ele>52.400000000000006</ele><time>2026-03-24T15:56:16Z</time></trkpt><trkpt lat="48.84569288183909" lon="2.401559976554208"><ele>52.0</ele><time>2026-03-24T15:56:17Z</time></trkpt><trkpt lat="48.84573903337885" lon="2.401486492630402"><ele>51.99999999999999</ele><time>2026-03-24T15:56:18Z</time></trkpt><trkpt lat="48.84579302407528" lon="2.40140889421089"><ele>52.0</ele><time>2026-03-24T15:56:19Z</time></trkpt><trkpt lat="48.845843632793304" lon="2.4013299884926202"><ele>52.0</ele><time>2026-03-24T15:56:20Z</time></trkpt><trkpt lat="48.845894379338624" lon="2.4012559493354795"><ele>52.0</ele><time>2026-03-24T15:56:21Z</time></trkpt><trkpt lat="48.84594772879135" lon="2.401174542833108"><ele>51.99999999999999</ele><time>2026-03-24T15:56:22Z</time></trkpt><trkpt lat="48.84601023437575" lon="2.4010882897990835"><ele>52.0</ele><time>2026-03-24T15:56:23Z</time></trkpt><trkpt lat="48.846063960415826" lon="2.4010066901520055"><ele>52.666666666666664</ele><time>2026-03-24T15:56:24.001Z</time></trkpt><trkpt lat="48.84612050767502" lon="2.4009255788798916"><ele>53.33333333333333</ele><time>2026-03-24T15:56:25.001Z</time></trkpt><trkpt lat="48.846178349145426" lon="2.400844470692375"><ele>54.0</ele><time>2026-03-24T15:56:26.001Z</time></trkpt><trkpt lat="48.8462340758697" lon="2.4007609614082877"><ele>54.66666666666667</ele><time>2026-03-24T15:56:27.001Z</time></trkpt><trkpt lat="48.84628750732979" lon="2.4006737730792245"><ele>55.333333333333336</ele><time>2026-03-24T15:56:28.001Z</time></trkpt><trkpt lat="48.84633951229831" lon="2.400583611348026"><ele>56.0</ele><time>2026-03-24T15:56:29.001Z</time></trkpt><trkpt lat="48.846406671251046" lon="2.40049583010522"><ele>56.16666666666667</ele><time>2026-03-24T15:56:30.001Z</time></trkpt><trkpt lat="48.846471112751274" lon="2.400407934742892"><ele>56.333333333333336</ele><time>2026-03-24T15:56:31.001Z</time></trkpt><trkpt lat="48.84653230797957" lon="2.400314592058697"><ele>56.5</ele><time>2026-03-24T15:56:32.001Z</time></trkpt><trkpt lat="48.84659253929523" lon="2.400223870383797"><ele>56.66666666666667</ele><time>2026-03-24T15:56:33.001Z</time></trkpt><trkpt lat="48.84665701930463" lon="2.4001313937437723"><ele>56.833333333333336</ele><time>2026-03-24T15:56:34.001Z</time></trkpt><trkpt lat="48.8467221726202" lon="2.4000387505447054"><ele>57.0</ele><time>2026-03-24T15:56:35.001Z</time></trkpt><trkpt lat="48.84678773260146" lon="2.399944049148641"><ele>56.666666666666664</ele><time>2026-03-24T15:56:36.001Z</time></trkpt><trkpt lat="48.84685044712351" lon="2.399846911127585"><ele>56.33333333333333</ele><time>2026-03-24T15:56:37.001Z</time></trkpt><trkpt lat="48.84690360233807" lon="2.399770406351408"><ele>56.0</ele><time>2026-03-24T15:56:38.001Z</time></trkpt><trkpt lat="48.846970054480856" lon="2.399672440068149"><ele>55.666666666666664</ele><time>2026-03-24T15:56:40.001Z</time></trkpt><trkpt lat="48.847062097806656" lon="2.3995464091771077"><ele>55.33333333333333</ele><time>2026-03-24T15:56:42.001Z</time></trkpt><trkpt lat="48.847111191384776" lon="2.39947024965217"><ele>55.0</ele><time>2026-03-24T15:56:43.001Z</time></trkpt><trkpt lat="48.847199474600195" lon="2.3993330549647887"><ele>54.6</ele><time>2026-03-24T15:56:45.001Z</time></trkpt><trkpt lat="48.84728582206325" lon="2.399196012742715"><ele>54.2</ele><time>2026-03-24T15:56:47.001Z</time></trkpt><trkpt lat="48.847333584171906" lon="2.399122557984702"><ele>53.8</ele><time>2026-03-24T15:56:48.001Z</time></trkpt><trkpt lat="48.84739114828611" lon="2.3990762630438676"><ele>53.4</ele><time>2026-03-24T15:56:49.001Z</time></trkpt><trkpt lat="48.84749628942207" lon="2.399054138847698"><ele>53.0</ele><time>2026-03-24T15:56:51.001Z</time></trkpt><trkpt lat="48.847587550128026" lon="2.3991020148960436"><ele>53.142857142857146</ele><time>2026-03-24T15:56:53.001Z</time></trkpt><trkpt lat="48.847652527756345" lon="2.3990942650733333"><ele>53.285714285714285</ele><time>2026-03-24T15:56:56.001Z</time></trkpt><trkpt lat="48.84772687260336" lon="2.399133022376668"><ele>53.42857142857143</ele><time>2026-03-24T15:56:59.001Z</time></trkpt><trkpt lat="48.84779784499413" lon="2.399130394356925"><ele>53.57142857142857</ele><time>2026-03-24T15:57:02.001Z</time></trkpt><trkpt lat="48.84785821184593" lon="2.3991744383791493"><ele>53.71428571428571</ele><time>2026-03-24T15:57:04.001Z</time></trkpt><trkpt lat="48.84794335788876" lon="2.399166925012147"><ele>53.857142857142854</ele><time>2026-03-24T15:57:36.002Z</time></trkpt><trkpt lat="48.84801325274948" lon="2.399176735646234"><ele>54.0</ele><time>2026-03-24T15:57:38.002Z</time></trkpt><trkpt lat="48.84809565997225" lon="2.3991763679247886"><ele>54.0</ele><time>2026-03-24T15:57:40Z</time></trkpt><trkpt lat="48.84813690298499" lon="2.399249228203171"><ele>54.00000000000001</ele><time>2026-03-24T15:57:41Z</time></trkpt><trkpt lat="48.84820114605194" lon="2.3992525539270386"><ele>54.00000000000001</ele><time>2026-03-24T15:57:43Z</time></trkpt><trkpt lat="48.8483002278787" lon="2.3992757541109007"><ele>54.0</ele><time>2026-03-24T15:57:46Z</time></trkpt><trkpt lat="48.848374645154244" lon="2.39925293555084"><ele>54.0</ele><time>2026-03-24T15:57:53Z</time></trkpt><trkpt lat="48.84839614091387" lon="2.399003369692919"><ele>54.0</ele><time>2026-03-24T15:57:58Z</time></trkpt><trkpt lat="48.848405153393706" lon="2.398842157999849"><ele>54.00000000000001</ele><time>2026-03-24T15:58:00Z</time></trkpt><trkpt lat="48.84841984597276" lon="2.398671466706573"><ele>54.00000000000001</ele><time>2026-03-24T15:58:02Z</time></trkpt><trkpt lat="48.84843420132927" lon="2.3985508550798174"><ele>54.0</ele><time>2026-03-24T15:58:04Z</time></trkpt><trkpt lat="48.848419816116056" lon="2.3984315560006833"><ele>54.0</ele><time>2026-03-24T15:58:19Z</time></trkpt><trkpt lat="48.8484341163257" lon="2.3982908128870637"><ele>54.800000000000004</ele><time>2026-03-24T15:58:21Z</time></trkpt><trkpt lat="48.848445720587236" lon="2.398147921352113"><ele>55.60000000000001</ele><time>2026-03-24T15:58:23Z</time></trkpt><trkpt lat="48.84845794095148" lon="2.3980049262795022"><ele>56.4</ele><time>2026-03-24T15:58:25Z</time></trkpt><trkpt lat="48.848476524557206" lon="2.3978412170404746"><ele>57.2</ele><time>2026-03-24T15:58:27Z</time></trkpt><trkpt lat="48.848484221568874" lon="2.3977263570453498"><ele>58.0</ele><time>2026-03-24T15:58:29Z</time></trkpt><trkpt lat="48.8484982172653" lon="2.397608158664657"><ele>58.166666666666664</ele><time>2026-03-24T15:58:32Z</time></trkpt><trkpt lat="48.848550586356815" lon="2.3975295611707548"><ele>58.33333333333333</ele><time>2026-03-24T15:58:43.001Z</time></trkpt><trkpt lat="48.848642987860956" lon="2.3974840699628266"><ele>58.5</ele><time>2026-03-24T15:58:45.001Z</time></trkpt><trkpt lat="48.84875922065621" lon="2.3974421238125645"><ele>58.66666666666667</ele><time>2026-03-24T15:58:47.001Z</time></trkpt><trkpt lat="48.848820636514766" lon="2.3974008491945447"><ele>58.833333333333336</ele><time>2026-03-24T15:58:48.001Z</time></trkpt><trkpt lat="48.84888289189313" lon="2.39735437170355"><ele>59.0</ele><time>2026-03-24T15:58:49.001Z</time></trkpt><trkpt lat="48.848943550851295" lon="2.3973065354467202"><ele>59.00000000000001</ele><time>2026-03-24T15:58:50.001Z</time></trkpt><trkpt lat="48.84899128937452" lon="2.3972428267186814"><ele>59.0</ele><time>2026-03-24T15:58:51.001Z</time></trkpt><trkpt lat="48.849078399544595" lon="2.3971353870268906"><ele>59.0</ele><time>2026-03-24T15:58:53.001Z</time></trkpt><trkpt lat="48.84916407652338" lon="2.3970133866621874"><ele>59.0</ele><time>2026-03-24T15:58:55.001Z</time></trkpt><trkpt lat="48.849209749702304" lon="2.3969344228697453"><ele>59.00000000000001</ele><time>2026-03-24T15:58:56.001Z</time></trkpt><trkpt lat="48.8492506371631" lon="2.3968596203211914"><ele>59.0</ele><time>2026-03-24T15:58:57.001Z</time></trkpt><trkpt lat="48.84931174170279" lon="2.3966878239131186"><ele>58.42857142857142</ele><time>2026-03-24T15:58:59.001Z</time></trkpt><trkpt lat="48.84934128172079" lon="2.396587594706458"><ele>57.85714285714286</ele><time>2026-03-24T15:59:00.001Z</time></trkpt><trkpt lat="48.84937976873546" lon="2.3964889122192865"><ele>57.285714285714285</ele><time>2026-03-24T15:59:01.001Z</time></trkpt><trkpt lat="48.849413057571105" lon="2.3963931954691433"><ele>56.71428571428571</ele><time>2026-03-24T15:59:02.001Z</time></trkpt><trkpt lat="48.84943313055442" lon="2.3962766730389644"><ele>56.14285714285714</ele><time>2026-03-24T15:59:03.001Z</time></trkpt><trkpt lat="48.84944521780577" lon="2.396170271016974"><ele>55.57142857142857</ele><time>2026-03-24T15:59:04.001Z</time></trkpt><trkpt lat="48.8494541524749" lon="2.3960751301654644"><ele>55.0</ele><time>2026-03-24T15:59:05.001Z</time></trkpt><trkpt lat="48.84946148822602" lon="2.3959715193706472"><ele>54.99999999999999</ele><time>2026-03-24T15:59:06.001Z</time></trkpt><trkpt lat="48.849468624616385" lon="2.3957924871251253"><ele>55.0</ele><time>2026-03-24T15:59:08.001Z</time></trkpt><trkpt lat="48.849449626464924" lon="2.395630697321462"><ele>55.0</ele><time>2026-03-24T15:59:10.001Z</time></trkpt><trkpt lat="48.849456688848115" lon="2.395523126182896"><ele>55.0</ele><time>2026-03-24T15:59:12.001Z</time></trkpt><trkpt lat="48.84943946487381" lon="2.3954200654786293"><ele>54.99999999999999</ele><time>2026-03-24T15:59:15.001Z</time></trkpt><trkpt lat="48.84940957267752" lon="2.395327720084654"><ele>55.0</ele><time>2026-03-24T15:59:26.001Z</time></trkpt><trkpt lat="48.84931160734989" lon="2.395191159065956"><ele>54.8</ele><time>2026-03-24T15:59:45Z</time></trkpt><trkpt lat="48.849264065598" lon="2.395051148653548"><ele>54.6</ele><time>2026-03-24T15:59:47Z</time></trkpt><trkpt lat="48.84920459167194" lon="2.3949145077632306"><ele>54.400000000000006</ele><time>2026-03-24T15:59:49Z</time></trkpt><trkpt lat="48.849178955853105" lon="2.3947961831133506"><ele>54.2</ele><time>2026-03-24T15:59:51Z</time></trkpt><trkpt lat="48.849218091184895" lon="2.3946499071754257"><ele>54.0</ele><time>2026-03-24T15:59:54Z</time></trkpt><trkpt lat="48.84931150649825" lon="2.3945335561222927"><ele>54.0</ele><time>2026-03-24T15:59:56Z</time></trkpt><trkpt lat="48.84935134943696" lon="2.3944538059807785"><ele>54.0</ele><time>2026-03-24T15:59:57Z</time></trkpt><trkpt lat="48.849396835216034" lon="2.3943681547722675"><ele>54.0</ele><time>2026-03-24T15:59:58Z</time></trkpt><trkpt lat="48.849439318057485" lon="2.3942884625122245"><ele>54.0</ele><time>2026-03-24T15:59:59Z</time></trkpt><trkpt lat="48.84948568670168" lon="2.394203153188498"><ele>54.0</ele><time>2026-03-24T16:00:00Z</time></trkpt><trkpt lat="48.849532360793035" lon="2.394123875362455"><ele>54.0</ele><time>2026-03-24T16:00:01Z</time></trkpt><trkpt lat="48.849581467823704" lon="2.39404142571373"><ele>54.0</ele><time>2026-03-24T16:00:02Z</time></trkpt><trkpt lat="48.84962780328321" lon="2.393966172684939"><ele>54.0</ele><time>2026-03-24T16:00:03Z</time></trkpt><trkpt lat="48.84967542476324" lon="2.393889385313205"><ele>54.0</ele><time>2026-03-24T16:00:04Z</time></trkpt><trkpt lat="48.849718791207444" lon="2.3938112503891738"><ele>54.0</ele><time>2026-03-24T16:00:05Z</time></trkpt><trkpt lat="48.84977051990488" lon="2.393721802379132"><ele>54.0</ele><time>2026-03-24T16:00:06Z</time></trkpt><trkpt lat="48.849821492429214" lon="2.393631832328273"><ele>54.0</ele><time>2026-03-24T16:00:07Z</time></trkpt><trkpt lat="48.8498777037594" lon="2.3935369121597514"><ele>54.0</ele><time>2026-03-24T16:00:08Z</time></trkpt><trkpt lat="48.84993714389888" lon="2.3934400945303347"><ele>54.0</ele><time>2026-03-24T16:00:09Z</time></trkpt><trkpt lat="48.85000404187388" lon="2.3933399213786415"><ele>54.00000000000001</ele><time>2026-03-24T16:00:10Z</time></trkpt><trkpt lat="48.85006612934388" lon="2.3932374013455444"><ele>54.00000000000001</ele><time>2026-03-24T16:00:11Z</time></trkpt><trkpt lat="48.85013090529013" lon="2.3931312164247776"><ele>54.0</ele><time>2026-03-24T16:00:12Z</time></trkpt><trkpt lat="48.85018668886097" lon="2.3930304036947607"><ele>54.0</ele><time>2026-03-24T16:00:13Z</time></trkpt><trkpt lat="48.850248298627584" lon="2.39293302508326"><ele>54.285714285714285</ele><time>2026-03-24T16:00:14Z</time></trkpt><trkpt lat="48.85029888998113" lon="2.392853699666562"><ele>54.57142857142857</ele><time>2026-03-24T16:00:15Z</time></trkpt><trkpt lat="48.85034168818541" lon="2.3927747934279515"><ele>54.85714285714286</ele><time>2026-03-24T16:00:16Z</time></trkpt><trkpt lat="48.850408049770536" lon="2.392658641389203"><ele>55.14285714285714</ele><time>2026-03-24T16:00:18Z</time></trkpt><trkpt lat="48.85045520978515" lon="2.3925839535043627"><ele>55.42857142857143</ele><time>2026-03-24T16:00:19Z</time></trkpt><trkpt lat="48.850491852226114" lon="2.3925053913500602"><ele>55.714285714285715</ele><time>2026-03-24T16:00:20Z</time></trkpt><trkpt lat="48.85054024235633" lon="2.3924219467604604"><ele>56.0</ele><time>2026-03-24T16:00:21Z</time></trkpt><trkpt lat="48.85059962364049" lon="2.3923474432010114"><ele>56.00000000000001</ele><time>2026-03-24T16:00:22Z</time></trkpt><trkpt lat="48.850655478741935" lon="2.39224855822389"><ele>56.0</ele><time>2026-03-24T16:00:23Z</time></trkpt><trkpt lat="48.85071354738462" lon="2.392147938052738"><ele>56.0</ele><time>2026-03-24T16:00:24Z</time></trkpt><trkpt lat="48.85077192151864" lon="2.3920549171844545"><ele>56.0</ele><time>2026-03-24T16:00:25.001Z</time></trkpt><trkpt lat="48.850831313656165" lon="2.39196485893562"><ele>56.00000000000001</ele><time>2026-03-24T16:00:26.001Z</time></trkpt><trkpt lat="48.85087458700317" lon="2.391885810748386"><ele>56.0</ele><time>2026-03-24T16:00:27.001Z</time></trkpt><trkpt lat="48.85093926422433" lon="2.3917680903530507"><ele>55.4</ele><time>2026-03-24T16:00:31.001Z</time></trkpt><trkpt lat="48.85101412116699" lon="2.391634075542023"><ele>54.8</ele><time>2026-03-24T16:00:33.001Z</time></trkpt><trkpt lat="48.851057698067535" lon="2.391561036048248"><ele>54.199999999999996</ele><time>2026-03-24T16:00:34.001Z</time></trkpt><trkpt lat="48.85113740611739" lon="2.391406103242371"><ele>53.599999999999994</ele><time>2026-03-24T16:00:36.001Z</time></trkpt><trkpt lat="48.85117428349931" lon="2.3913235113432996"><ele>53.0</ele><time>2026-03-24T16:00:37.001Z</time></trkpt><trkpt lat="48.8512306218684" lon="2.3912492019819958"><ele>53.00000000000001</ele><time>2026-03-24T16:00:38.001Z</time></trkpt><trkpt lat="48.85128351380234" lon="2.3911636550524946"><ele>53.0</ele><time>2026-03-24T16:00:39.001Z</time></trkpt><trkpt lat="48.85133064156939" lon="2.391092640238529"><ele>53.0</ele><time>2026-03-24T16:00:40.001Z</time></trkpt><trkpt lat="48.85138294239845" lon="2.391030108402795"><ele>53.0</ele><time>2026-03-24T16:00:41.001Z</time></trkpt><trkpt lat="48.851435008160124" lon="2.390944999089901"><ele>53.00000000000001</ele><time>2026-03-24T16:00:42.001Z</time></trkpt><trkpt lat="48.85149358005983" lon="2.3908537891789607"><ele>53.0</ele><time>2026-03-24T16:00:43.001Z</time></trkpt><trkpt lat="48.851548156419234" lon="2.3907544950321857"><ele>53.00000000000001</ele><time>2026-03-24T16:00:44.001Z</time></trkpt><trkpt lat="48.851597341222984" lon="2.3906643543114763"><ele>53.0</ele><time>2026-03-24T16:00:45.001Z</time></trkpt><trkpt lat="48.85164483716193" lon="2.390583004593442"><ele>53.0</ele><time>2026-03-24T16:00:46.001Z</time></trkpt><trkpt lat="48.85169960946085" lon="2.3905013632608156"><ele>53.0</ele><time>2026-03-24T16:00:47.001Z</time></trkpt><trkpt lat="48.8517559121403" lon="2.390398144198355"><ele>53.00000000000001</ele><time>2026-03-24T16:00:48.001Z</time></trkpt><trkpt lat="48.85181085470438" lon="2.3903029242453293"><ele>53.0</ele><time>2026-03-24T16:00:49.001Z</time></trkpt><trkpt lat="48.85187000063021" lon="2.3902017953533545"><ele>53.00000000000001</ele><time>2026-03-24T16:00:50.001Z</time></trkpt><trkpt lat="48.85192487093795" lon="2.390121549186592"><ele>53.0</ele><time>2026-03-24T16:00:51.001Z</time></trkpt><trkpt lat="48.85200215488252" lon="2.3899814309761536"><ele>53.0</ele><time>2026-03-24T16:00:53.001Z</time></trkpt><trkpt lat="48.85205632751102" lon="2.3898923073969542"><ele>53.0</ele><time>2026-03-24T16:00:54.001Z</time></trkpt><trkpt lat="48.85210560750691" lon="2.3898098100649796"><ele>53.00000000000001</ele><time>2026-03-24T16:00:55.001Z</time></trkpt><trkpt lat="48.852160140804756" lon="2.389709987421559"><ele>53.0</ele><time>2026-03-24T16:00:56.001Z</time></trkpt><trkpt lat="48.85221120559999" lon="2.389624179757517"><ele>53.00000000000001</ele><time>2026-03-24T16:00:57.001Z</time></trkpt><trkpt lat="48.85226964592736" lon="2.38952833314151"><ele>53.0</ele><time>2026-03-24T16:00:58.001Z</time></trkpt><trkpt lat="48.852331194183186" lon="2.389425566276075"><ele>53.0</ele><time>2026-03-24T16:00:59.001Z</time></trkpt><trkpt lat="48.85238380539191" lon="2.389336044209977"><ele>53.0</ele><time>2026-03-24T16:01:00.001Z</time></trkpt><trkpt lat="48.85242636063766" lon="2.389260866354091"><ele>53.00000000000001</ele><time>2026-03-24T16:01:01.001Z</time></trkpt><trkpt lat="48.85247383860921" lon="2.389181237120586"><ele>53.0</ele><time>2026-03-24T16:01:02.001Z</time></trkpt><trkpt lat="48.85252129113822" lon="2.3891083464795915"><ele>53.00000000000001</ele><time>2026-03-24T16:01:03.001Z</time></trkpt><trkpt lat="48.85257294345159" lon="2.389019739649441"><ele>53.0</ele><time>2026-03-24T16:01:04.001Z</time></trkpt><trkpt lat="48.85263011332658" lon="2.3889226222854876"><ele>53.0</ele><time>2026-03-24T16:01:05.001Z</time></trkpt><trkpt lat="48.85268982735542" lon="2.388821312240663"><ele>53.0</ele><time>2026-03-24T16:01:07.001Z</time></trkpt><trkpt lat="48.85275151749329" lon="2.3887112756782676"><ele>53.00000000000001</ele><time>2026-03-24T16:01:18.001Z</time></trkpt><trkpt lat="48.852815413570134" lon="2.3886023624205706"><ele>53.0</ele><time>2026-03-24T16:01:20.001Z</time></trkpt><trkpt lat="48.85289984723096" lon="2.38847955772888"><ele>52.50000000000001</ele><time>2026-03-24T16:01:22.001Z</time></trkpt><trkpt lat="48.85294742400258" lon="2.3884014009355594"><ele>52.0</ele><time>2026-03-24T16:01:23.001Z</time></trkpt><trkpt lat="48.85300088988321" lon="2.3883219131196145"><ele>51.5</ele><time>2026-03-24T16:01:24.001Z</time></trkpt><trkpt lat="48.85305746913918" lon="2.3882186321205405"><ele>51.0</ele><time>2026-03-24T16:01:25.001Z</time></trkpt><trkpt lat="48.85311251250595" lon="2.388125506110176"><ele>50.50000000000001</ele><time>2026-03-24T16:01:26.001Z</time></trkpt><trkpt lat="48.853169724369266" lon="2.388037068556471"><ele>50.0</ele><time>2026-03-24T16:01:27.001Z</time></trkpt><trkpt lat="48.85321982628545" lon="2.3879485898975625"><ele>50.00000000000001</ele><time>2026-03-24T16:01:28.002Z</time></trkpt><trkpt lat="48.8532663587013" lon="2.3878635343102017"><ele>50.0</ele><time>2026-03-24T16:01:29.002Z</time></trkpt><trkpt lat="48.85331170127922" lon="2.387791302091838"><ele>50.0</ele><time>2026-03-24T16:01:30.002Z</time></trkpt><trkpt lat="48.85335826736657" lon="2.3877166691058003"><ele>50.0</ele><time>2026-03-24T16:01:31.002Z</time></trkpt><trkpt lat="48.85340718389508" lon="2.387628137464694"><ele>50.0</ele><time>2026-03-24T16:01:32.002Z</time></trkpt><trkpt lat="48.85345667282142" lon="2.387543005322425"><ele>50.00000000000001</ele><time>2026-03-24T16:01:33.002Z</time></trkpt><trkpt lat="48.853508641882904" lon="2.387452837231279"><ele>50.0</ele><time>2026-03-24T16:01:34.002Z</time></trkpt><trkpt lat="48.853562425837275" lon="2.387357913732048"><ele>49.50000000000001</ele><time>2026-03-24T16:01:35.002Z</time></trkpt><trkpt lat="48.853629110376474" lon="2.3872677357759646"><ele>49.0</ele><time>2026-03-24T16:01:36.002Z</time></trkpt><trkpt lat="48.85368125076201" lon="2.387165364262076"><ele>48.5</ele><time>2026-03-24T16:01:37.002Z</time></trkpt><trkpt lat="48.85373591309178" lon="2.3870647428272145"><ele>48.0</ele><time>2026-03-24T16:01:38.002Z</time></trkpt><trkpt lat="48.85379355307646" lon="2.3869704669856477"><ele>47.5</ele><time>2026-03-24T16:01:39.002Z</time></trkpt><trkpt lat="48.85385523423566" lon="2.3868833523296544"><ele>47.0</ele><time>2026-03-24T16:01:40.002Z</time></trkpt><trkpt lat="48.853899255237216" lon="2.386802391239621"><ele>47.0</ele><time>2026-03-24T16:01:41.002Z</time></trkpt><trkpt lat="48.853954547176684" lon="2.3867101146425553"><ele>47.0</ele><time>2026-03-24T16:01:42.002Z</time></trkpt><trkpt lat="48.85400116485427" lon="2.3866250390976655"><ele>47.0</ele><time>2026-03-24T16:01:43.002Z</time></trkpt><trkpt lat="48.854060218377406" lon="2.3865355965559547"><ele>47.0</ele><time>2026-03-24T16:01:44.002Z</time></trkpt><trkpt lat="48.854107701221054" lon="2.386442970030008"><ele>47.0</ele><time>2026-03-24T16:01:45.002Z</time></trkpt><trkpt lat="48.85415900243179" lon="2.3863613152887195"><ele>47.0</ele><time>2026-03-24T16:01:46.002Z</time></trkpt><trkpt lat="48.85420587241873" lon="2.3862854894476864"><ele>47.0</ele><time>2026-03-24T16:01:47.002Z</time></trkpt><trkpt lat="48.85425639256017" lon="2.386209846793077"><ele>47.0</ele><time>2026-03-24T16:01:48.002Z</time></trkpt><trkpt lat="48.85430029968626" lon="2.3861206702913194"><ele>47.0</ele><time>2026-03-24T16:01:49.002Z</time></trkpt><trkpt lat="48.854358496569326" lon="2.3860298771342916"><ele>47.0</ele><time>2026-03-24T16:01:50.002Z</time></trkpt><trkpt lat="48.854412839229745" lon="2.3859352188377665"><ele>47.0</ele><time>2026-03-24T16:01:51Z</time></trkpt><trkpt lat="48.8544669975933" lon="2.385840732380728"><ele>47.0</ele><time>2026-03-24T16:01:52Z</time></trkpt><trkpt lat="48.85451900331316" lon="2.385753039575343"><ele>47.33333333333333</ele><time>2026-03-24T16:01:53Z</time></trkpt><trkpt lat="48.85456835274264" lon="2.3856742145239234"><ele>47.666666666666664</ele><time>2026-03-24T16:01:54Z</time></trkpt><trkpt lat="48.854623455279594" lon="2.3855787935131385"><ele>48.0</ele><time>2026-03-24T16:01:56Z</time></trkpt><trkpt lat="48.85467448541591" lon="2.3855170405328825"><ele>48.33333333333333</ele><time>2026-03-24T16:02:09Z</time></trkpt><trkpt lat="48.854734327532576" lon="2.385420267032117"><ele>48.666666666666664</ele><time>2026-03-24T16:02:13Z</time></trkpt><trkpt lat="48.854794491717925" lon="2.385289660685512"><ele>49.0</ele><time>2026-03-24T16:02:15Z</time></trkpt><trkpt lat="48.854885961000214" lon="2.3851432906678047"><ele>48.99999999999999</ele><time>2026-03-24T16:02:17Z</time></trkpt><trkpt lat="48.854941003473314" lon="2.385063373846169"><ele>49.0</ele><time>2026-03-24T16:02:18Z</time></trkpt><trkpt lat="48.85500647089901" lon="2.3849852663972446"><ele>49.0</ele><time>2026-03-24T16:02:19Z</time></trkpt><trkpt lat="48.855064097069246" lon="2.384878789989007"><ele>49.0</ele><time>2026-03-24T16:02:20.001Z</time></trkpt><trkpt lat="48.855111014271905" lon="2.384765938625998"><ele>48.99999999999999</ele><time>2026-03-24T16:02:21.001Z</time></trkpt><trkpt lat="48.855185276659746" lon="2.384652553326107"><ele>49.0</ele><time>2026-03-24T16:02:23.001Z</time></trkpt><trkpt lat="48.85523340332235" lon="2.384563299065577"><ele>48.166666666666664</ele><time>2026-03-24T16:02:24.001Z</time></trkpt><trkpt lat="48.85527588079518" lon="2.3844886822517894"><ele>47.33333333333333</ele><time>2026-03-24T16:02:25.001Z</time></trkpt><trkpt lat="48.85532295572108" lon="2.3844162567061855"><ele>46.5</ele><time>2026-03-24T16:02:26.001Z</time></trkpt><trkpt lat="48.855402990265624" lon="2.3842693186312984"><ele>45.666666666666664</ele><time>2026-03-24T16:02:28.001Z</time></trkpt><trkpt lat="48.855458571052296" lon="2.3841900427262757"><ele>44.83333333333333</ele><time>2026-03-24T16:02:29.001Z</time></trkpt><trkpt lat="48.855510648068076" lon="2.3841036042592023"><ele>44.0</ele><time>2026-03-24T16:02:30.001Z</time></trkpt><trkpt lat="48.85556089289546" lon="2.3840130645891646"><ele>44.0</ele><time>2026-03-24T16:02:31.001Z</time></trkpt><trkpt lat="48.85561673630109" lon="2.383915372821047"><ele>44.0</ele><time>2026-03-24T16:02:32.001Z</time></trkpt><trkpt lat="48.85566892594299" lon="2.3838241469078323"><ele>44.0</ele><time>2026-03-24T16:02:33.001Z</time></trkpt><trkpt lat="48.85574380697147" lon="2.3836883893645098"><ele>44.0</ele><time>2026-03-24T16:02:35.001Z</time></trkpt><trkpt lat="48.85578895099874" lon="2.38362063410584"><ele>44.0</ele><time>2026-03-24T16:02:36.001Z</time></trkpt><trkpt lat="48.8558318052931" lon="2.383546542127214"><ele>44.0</ele><time>2026-03-24T16:02:37.001Z</time></trkpt><trkpt lat="48.85589728422654" lon="2.383434372714258"><ele>44.0</ele><time>2026-03-24T16:02:39.001Z</time></trkpt><trkpt lat="48.855915695855295" lon="2.383321822623363"><ele>44.0</ele><time>2026-03-24T16:02:43.001Z</time></trkpt><trkpt lat="48.85598367881082" lon="2.3832337328056825"><ele>44.0</ele><time>2026-03-24T16:02:45.001Z</time></trkpt><trkpt lat="48.856071718926756" lon="2.38309980181966"><ele>44.0</ele><time>2026-03-24T16:02:47.001Z</time></trkpt><trkpt lat="48.85611604418298" lon="2.3830261995237185"><ele>44.0</ele><time>2026-03-24T16:02:48.001Z</time></trkpt><trkpt lat="48.85619946852784" lon="2.3829128012354035"><ele>44.666666666666664</ele><time>2026-03-24T16:02:50.001Z</time></trkpt><trkpt lat="48.85629327214102" lon="2.382812461706246"><ele>45.33333333333333</ele><time>2026-03-24T16:02:52.001Z</time></trkpt><trkpt lat="48.856338196501056" lon="2.382737801154043"><ele>46.0</ele><time>2026-03-24T16:02:53.001Z</time></trkpt><trkpt lat="48.85638895207714" lon="2.3826446639846064"><ele>46.666666666666664</ele><time>2026-03-24T16:02:54.001Z</time></trkpt><trkpt lat="48.85643978869921" lon="2.382573427959711"><ele>47.333333333333336</ele><time>2026-03-24T16:02:55.001Z</time></trkpt><trkpt lat="48.8564898079599" lon="2.3824866574191352"><ele>48.0</ele><time>2026-03-24T16:02:56.001Z</time></trkpt><trkpt lat="48.85654008694637" lon="2.3823903821242673"><ele>48.0</ele><time>2026-03-24T16:02:57.001Z</time></trkpt><trkpt lat="48.856595390728664" lon="2.3823107014336764"><ele>48.0</ele><time>2026-03-24T16:02:58.001Z</time></trkpt><trkpt lat="48.85664763855126" lon="2.3822199725312587"><ele>48.0</ele><time>2026-03-24T16:02:59.001Z</time></trkpt><trkpt lat="48.85669682257272" lon="2.382130096713097"><ele>48.0</ele><time>2026-03-24T16:03:00.001Z</time></trkpt><trkpt lat="48.85674068318236" lon="2.38204586746127"><ele>48.0</ele><time>2026-03-24T16:03:01.001Z</time></trkpt><trkpt lat="48.85680048894662" lon="2.3819684787412205"><ele>48.0</ele><time>2026-03-24T16:03:02.001Z</time></trkpt><trkpt lat="48.85685528331713" lon="2.381874533391804"><ele>48.0</ele><time>2026-03-24T16:03:03.001Z</time></trkpt><trkpt lat="48.85691227851717" lon="2.3817772109074706"><ele>48.0</ele><time>2026-03-24T16:03:04.001Z</time></trkpt><trkpt lat="48.856968529215195" lon="2.3816734125618644"><ele>48.0</ele><time>2026-03-24T16:03:05.001Z</time></trkpt><trkpt lat="48.85702672088949" lon="2.3815663916121244"><ele>48.0</ele><time>2026-03-24T16:03:06.001Z</time></trkpt><trkpt lat="48.85708395279472" lon="2.3814603098773635"><ele>48.0</ele><time>2026-03-24T16:03:07.001Z</time></trkpt><trkpt lat="48.85714621051135" lon="2.3813590572157604"><ele>48.0</ele><time>2026-03-24T16:03:08.001Z</time></trkpt><trkpt lat="48.85720292702486" lon="2.3812588917507673"><ele>47.8</ele><time>2026-03-24T16:03:09.001Z</time></trkpt><trkpt lat="48.85724946109145" lon="2.3811819966086007"><ele>47.599999999999994</ele><time>2026-03-24T16:03:10.001Z</time></trkpt><trkpt lat="48.8572905961535" lon="2.3811086926168836"><ele>47.400000000000006</ele><time>2026-03-24T16:03:11.001Z</time></trkpt><trkpt lat="48.857368453597736" lon="2.380975511511648"><ele>47.2</ele><time>2026-03-24T16:03:13.001Z</time></trkpt><trkpt lat="48.857440788823034" lon="2.3808515062884115"><ele>47.0</ele><time>2026-03-24T16:03:15.001Z</time></trkpt><trkpt lat="48.85750895219737" lon="2.380733118655044"><ele>47.0</ele><time>2026-03-24T16:03:17.001Z</time></trkpt><trkpt lat="48.85755970967303" lon="2.3806516753101206"><ele>47.0</ele><time>2026-03-24T16:03:19.001Z</time></trkpt><trkpt lat="48.85760828354239" lon="2.380569287808998"><ele>47.0</ele><time>2026-03-24T16:03:23.001Z</time></trkpt><trkpt lat="48.857625894110775" lon="2.3804543175875787"><ele>47.0</ele><time>2026-03-24T16:03:44.002Z</time></trkpt><trkpt lat="48.857689120108745" lon="2.380447365419483"><ele>47.0</ele><time>2026-03-24T16:03:46.002Z</time></trkpt><trkpt lat="48.85780387108045" lon="2.380440389976735"><ele>47.0</ele><time>2026-03-24T16:03:48.002Z</time></trkpt><trkpt lat="48.85788768604563" lon="2.380381338505572"><ele>46.400000000000006</ele><time>2026-03-24T16:03:50.002Z</time></trkpt><trkpt lat="48.857947570251476" lon="2.380255132930004"><ele>45.800000000000004</ele><time>2026-03-24T16:03:52.002Z</time></trkpt><trkpt lat="48.85791707113714" lon="2.3801083444991544"><ele>45.2</ele><time>2026-03-24T16:03:54.002Z</time></trkpt><trkpt lat="48.85796085044125" lon="2.379965213016922"><ele>44.6</ele><time>2026-03-24T16:03:56.002Z</time></trkpt><trkpt lat="48.85803532408599" lon="2.3798539163582295"><ele>44.0</ele><time>2026-03-24T16:03:58.001Z</time></trkpt><trkpt lat="48.858115246107225" lon="2.37972466038743"><ele>44.33333333333333</ele><time>2026-03-24T16:04:00.001Z</time></trkpt><trkpt lat="48.85817769125348" lon="2.3795833674731783"><ele>44.666666666666664</ele><time>2026-03-24T16:04:02.001Z</time></trkpt><trkpt lat="48.85822104470387" lon="2.3795083671307276"><ele>45.0</ele><time>2026-03-24T16:04:03.001Z</time></trkpt><trkpt lat="48.858285904911796" lon="2.379422879826149"><ele>45.333333333333336</ele><time>2026-03-24T16:04:04.001Z</time></trkpt><trkpt lat="48.85834393839789" lon="2.3793420248074173"><ele>45.66666666666667</ele><time>2026-03-24T16:04:05.001Z</time></trkpt><trkpt lat="48.858394637112276" lon="2.3792562311600163"><ele>46.0</ele><time>2026-03-24T16:04:06.001Z</time></trkpt><trkpt lat="48.858443366169226" lon="2.3791718502899113"><ele>46.16666666666667</ele><time>2026-03-24T16:04:07.001Z</time></trkpt><trkpt lat="48.858495791124795" lon="2.3790850678963595"><ele>46.333333333333336</ele><time>2026-03-24T16:04:08.001Z</time></trkpt><trkpt lat="48.858548683074666" lon="2.3789933736925866"><ele>46.5</ele><time>2026-03-24T16:04:09.001Z</time></trkpt><trkpt lat="48.85860391355386" lon="2.378905284271165"><ele>46.666666666666664</ele><time>2026-03-24T16:04:10.001Z</time></trkpt><trkpt lat="48.85864868066521" lon="2.3788371155902452"><ele>46.83333333333333</ele><time>2026-03-24T16:04:11.001Z</time></trkpt><trkpt lat="48.85870407566165" lon="2.37873280483361"><ele>47.0</ele><time>2026-03-24T16:04:13.001Z</time></trkpt><trkpt lat="48.85876199741267" lon="2.378644157346237"><ele>47.0</ele><time>2026-03-24T16:04:15.001Z</time></trkpt><trkpt lat="48.85885310313007" lon="2.3785028086718034"><ele>47.0</ele><time>2026-03-24T16:04:17.001Z</time></trkpt><trkpt lat="48.85889569417393" lon="2.37842929874045"><ele>47.0</ele><time>2026-03-24T16:04:18.001Z</time></trkpt><trkpt lat="48.858946303886455" lon="2.3783492809821105"><ele>47.0</ele><time>2026-03-24T16:04:19.001Z</time></trkpt><trkpt lat="48.8589901634871" lon="2.378269765869141"><ele>47.0</ele><time>2026-03-24T16:04:20.001Z</time></trkpt><trkpt lat="48.859037936346596" lon="2.378184236252554"><ele>47.0</ele><time>2026-03-24T16:04:21.001Z</time></trkpt><trkpt lat="48.85908495653006" lon="2.378094336974396"><ele>47.0</ele><time>2026-03-24T16:04:22.001Z</time></trkpt><trkpt lat="48.85914240920364" lon="2.3780020370648303"><ele>47.0</ele><time>2026-03-24T16:04:23.001Z</time></trkpt><trkpt lat="48.85920742787451" lon="2.3779136163949435"><ele>47.0</ele><time>2026-03-24T16:04:24.001Z</time></trkpt><trkpt lat="48.859264995795314" lon="2.3778100425986137"><ele>47.0</ele><time>2026-03-24T16:04:25.001Z</time></trkpt><trkpt lat="48.85932060389839" lon="2.3777009316400646"><ele>47.0</ele><time>2026-03-24T16:04:26.001Z</time></trkpt><trkpt lat="48.85937655953498" lon="2.3775995994317682"><ele>47.0</ele><time>2026-03-24T16:04:27.001Z</time></trkpt><trkpt lat="48.85943259371875" lon="2.3775127314576534"><ele>47.2</ele><time>2026-03-24T16:04:28.001Z</time></trkpt><trkpt lat="48.85947741756579" lon="2.3774337216750703"><ele>47.400000000000006</ele><time>2026-03-24T16:04:29.001Z</time></trkpt><trkpt lat="48.85954660419691" lon="2.3773025014778173"><ele>47.599999999999994</ele><time>2026-03-24T16:04:31.001Z</time></trkpt><trkpt lat="48.85961855353519" lon="2.3771919731270317"><ele>47.8</ele><time>2026-03-24T16:04:33.001Z</time></trkpt><trkpt lat="48.85968925944381" lon="2.3770858065448763"><ele>48.0</ele><time>2026-03-24T16:04:35.001Z</time></trkpt><trkpt lat="48.85974292940224" lon="2.377002971837328"><ele>48.0</ele><time>2026-03-24T16:04:37.001Z</time></trkpt><trkpt lat="48.85979540643453" lon="2.376896708935703"><ele>48.0</ele><time>2026-03-24T16:04:39.001Z</time></trkpt><trkpt lat="48.85983846758837" lon="2.376799944132408"><ele>48.0</ele><time>2026-03-24T16:04:41.001Z</time></trkpt><trkpt lat="48.85988901281596" lon="2.376672079870735"><ele>48.0</ele><time>2026-03-24T16:04:43.001Z</time></trkpt><trkpt lat="48.85997447198028" lon="2.3765318173322467"><ele>48.0</ele><time>2026-03-24T16:04:45.001Z</time></trkpt><trkpt lat="48.86002036832335" lon="2.3764593300277417"><ele>48.0</ele><time>2026-03-24T16:04:46.001Z</time></trkpt><trkpt lat="48.860070608605916" lon="2.376387557274758"><ele>48.0</ele><time>2026-03-24T16:04:47.001Z</time></trkpt><trkpt lat="48.86012359762227" lon="2.376312870131622"><ele>48.0</ele><time>2026-03-24T16:04:48.001Z</time></trkpt><trkpt lat="48.86017209401956" lon="2.3762310954437873"><ele>48.0</ele><time>2026-03-24T16:04:49.001Z</time></trkpt><trkpt lat="48.86022098483574" lon="2.3761547540157326"><ele>48.0</ele><time>2026-03-24T16:04:50.001Z</time></trkpt><trkpt lat="48.860267362861" lon="2.3760820425431395"><ele>48.0</ele><time>2026-03-24T16:04:51.001Z</time></trkpt><trkpt lat="48.860352701729305" lon="2.3759479285742833"><ele>47.166666666666664</ele><time>2026-03-24T16:04:53.001Z</time></trkpt><trkpt lat="48.86042254245119" lon="2.3758333852902"><ele>46.333333333333336</ele><time>2026-03-24T16:04:55.001Z</time></trkpt><trkpt lat="48.860491748083724" lon="2.375768264256806"><ele>45.5</ele><time>2026-03-24T16:04:57.001Z</time></trkpt><trkpt lat="48.86054472004624" lon="2.375664559706014"><ele>44.66666666666667</ele><time>2026-03-24T16:04:59.001Z</time></trkpt><trkpt lat="48.86060056717839" lon="2.3755749688001937"><ele>43.833333333333336</ele><time>2026-03-24T16:05:01.001Z</time></trkpt><trkpt lat="48.86064559661923" lon="2.375497018306821"><ele>43.0</ele><time>2026-03-24T16:05:09.001Z</time></trkpt><trkpt lat="48.86071433268175" lon="2.3754235415148766"><ele>42.833333333333336</ele><time>2026-03-24T16:05:20.001Z</time></trkpt><trkpt lat="48.86076885921355" lon="2.3753483735243255"><ele>42.66666666666667</ele><time>2026-03-24T16:05:22.001Z</time></trkpt><trkpt lat="48.86083428420059" lon="2.3752357037074905"><ele>42.5</ele><time>2026-03-24T16:05:24.001Z</time></trkpt><trkpt lat="48.86089879704749" lon="2.375122010148941"><ele>42.333333333333336</ele><time>2026-03-24T16:05:26.001Z</time></trkpt><trkpt lat="48.86095553115772" lon="2.3750119144143027"><ele>42.166666666666664</ele><time>2026-03-24T16:05:28.001Z</time></trkpt><trkpt lat="48.86101197560103" lon="2.37491650303799"><ele>42.0</ele><time>2026-03-24T16:05:30.001Z</time></trkpt><trkpt lat="48.861057517250245" lon="2.3748230292622607"><ele>42.5</ele><time>2026-03-24T16:05:32.001Z</time></trkpt><trkpt lat="48.86110741697461" lon="2.3747269659511643"><ele>43.0</ele><time>2026-03-24T16:05:34.001Z</time></trkpt><trkpt lat="48.86118354178451" lon="2.3746039620731687"><ele>43.5</ele><time>2026-03-24T16:05:36.001Z</time></trkpt><trkpt lat="48.861232455713065" lon="2.3745241559269967"><ele>44.0</ele><time>2026-03-24T16:05:37.001Z</time></trkpt><trkpt lat="48.86127070274442" lon="2.3744336932393417"><ele>44.5</ele><time>2026-03-24T16:05:38.001Z</time></trkpt><trkpt lat="48.86131235983127" lon="2.374348116718147"><ele>45.0</ele><time>2026-03-24T16:05:39.001Z</time></trkpt><trkpt lat="48.86136489791012" lon="2.3742600429539764"><ele>45.0</ele><time>2026-03-24T16:05:40.001Z</time></trkpt><trkpt lat="48.86141851656807" lon="2.374167996332305"><ele>45.0</ele><time>2026-03-24T16:05:41.001Z</time></trkpt><trkpt lat="48.861471554847114" lon="2.3740761346647745"><ele>45.0</ele><time>2026-03-24T16:05:42.002Z</time></trkpt><trkpt lat="48.86152739467909" lon="2.373986037409133"><ele>45.0</ele><time>2026-03-24T16:05:43.002Z</time></trkpt><trkpt lat="48.86157933516263" lon="2.373903793751645"><ele>45.0</ele><time>2026-03-24T16:05:44.002Z</time></trkpt><trkpt lat="48.86162562072222" lon="2.373820724522441"><ele>45.0</ele><time>2026-03-24T16:05:45.002Z</time></trkpt><trkpt lat="48.86166986035944" lon="2.3737476437867704"><ele>45.2</ele><time>2026-03-24T16:05:46.002Z</time></trkpt><trkpt lat="48.86171111419394" lon="2.37367194354001"><ele>45.4</ele><time>2026-03-24T16:05:47.002Z</time></trkpt><trkpt lat="48.86179831116364" lon="2.373546398916523"><ele>45.599999999999994</ele><time>2026-03-24T16:05:49.002Z</time></trkpt><trkpt lat="48.86186424088731" lon="2.373426666369201"><ele>45.8</ele><time>2026-03-24T16:05:51.002Z</time></trkpt><trkpt lat="48.86193496701623" lon="2.3733012861205065"><ele>46.0</ele><time>2026-03-24T16:05:53.002Z</time></trkpt><trkpt lat="48.86198173626615" lon="2.3732208365646215"><ele>46.0</ele><time>2026-03-24T16:05:54.002Z</time></trkpt><trkpt lat="48.86206591121452" lon="2.3730887596256682"><ele>46.0</ele><time>2026-03-24T16:05:56.002Z</time></trkpt><trkpt lat="48.86211396644021" lon="2.3730100627611646"><ele>46.0</ele><time>2026-03-24T16:05:57.002Z</time></trkpt><trkpt lat="48.86216408611852" lon="2.3729332199511814"><ele>46.0</ele><time>2026-03-24T16:05:58.002Z</time></trkpt><trkpt lat="48.86220889972428" lon="2.372850285977188"><ele>46.0</ele><time>2026-03-24T16:05:59.002Z</time></trkpt><trkpt lat="48.86224939470889" lon="2.3727652368919494"><ele>46.0</ele><time>2026-03-24T16:06:00.002Z</time></trkpt><trkpt lat="48.86229448167067" lon="2.3726836152626842"><ele>45.833333333333336</ele><time>2026-03-24T16:06:01.002Z</time></trkpt><trkpt lat="48.862344317346405" lon="2.3726217941312053"><ele>45.66666666666667</ele><time>2026-03-24T16:06:02.002Z</time></trkpt><trkpt lat="48.862389955561454" lon="2.3725551799971574"><ele>45.5</ele><time>2026-03-24T16:06:03Z</time></trkpt><trkpt lat="48.86247603068793" lon="2.3724195784938797"><ele>45.333333333333336</ele><time>2026-03-24T16:06:05Z</time></trkpt><trkpt lat="48.86254754239465" lon="2.372269556808691"><ele>45.166666666666664</ele><time>2026-03-24T16:06:07Z</time></trkpt><trkpt lat="48.86259349010193" lon="2.372188618363656"><ele>45.0</ele><time>2026-03-24T16:06:08Z</time></trkpt><trkpt lat="48.86264266553044" lon="2.372113860223563"><ele>44.833333333333336</ele><time>2026-03-24T16:06:09Z</time></trkpt><trkpt lat="48.862699022342824" lon="2.372028892891008"><ele>44.666666666666664</ele><time>2026-03-24T16:06:10Z</time></trkpt><trkpt lat="48.86275402730156" lon="2.371938790946143"><ele>44.5</ele><time>2026-03-24T16:06:11Z</time></trkpt><trkpt lat="48.862811085399386" lon="2.3718436118713937"><ele>44.33333333333333</ele><time>2026-03-24T16:06:12Z</time></trkpt><trkpt lat="48.862867658560305" lon="2.3717438590292796"><ele>44.166666666666664</ele><time>2026-03-24T16:06:13Z</time></trkpt><trkpt lat="48.86291959185286" lon="2.3716487663724326"><ele>44.0</ele><time>2026-03-24T16:06:14Z</time></trkpt><trkpt lat="48.862973985547754" lon="2.3715594771188298"><ele>44.0</ele><time>2026-03-24T16:06:15Z</time></trkpt><trkpt lat="48.86303098842133" lon="2.371466626977557"><ele>44.0</ele><time>2026-03-24T16:06:16Z</time></trkpt><trkpt lat="48.8630849003669" lon="2.371369412323799"><ele>44.0</ele><time>2026-03-24T16:06:17Z</time></trkpt><trkpt lat="48.86313601613295" lon="2.371289427218097"><ele>44.0</ele><time>2026-03-24T16:06:18Z</time></trkpt><trkpt lat="48.863184332571066" lon="2.3712102786380003"><ele>44.0</ele><time>2026-03-24T16:06:19Z</time></trkpt><trkpt lat="48.8632323295997" lon="2.3711333581480165"><ele>44.0</ele><time>2026-03-24T16:06:20Z</time></trkpt><trkpt lat="48.86327574985247" lon="2.3710579920341024"><ele>44.0</ele><time>2026-03-24T16:06:21Z</time></trkpt><trkpt lat="48.8633221792383" lon="2.3709866821276204"><ele>44.0</ele><time>2026-03-24T16:06:22Z</time></trkpt><trkpt lat="48.86337542651201" lon="2.3709027628685027"><ele>44.0</ele><time>2026-03-24T16:06:23Z</time></trkpt><trkpt lat="48.86342089925177" lon="2.3708183900399713"><ele>44.0</ele><time>2026-03-24T16:06:24Z</time></trkpt><trkpt lat="48.86346965328893" lon="2.3707300754015033"><ele>44.0</ele><time>2026-03-24T16:06:25Z</time></trkpt><trkpt lat="48.86352212458859" lon="2.3706440301236733"><ele>44.0</ele><time>2026-03-24T16:06:26Z</time></trkpt><trkpt lat="48.86356757419273" lon="2.370567999817241"><ele>44.0</ele><time>2026-03-24T16:06:27Z</time></trkpt><trkpt lat="48.863653650415294" lon="2.3704223216874647"><ele>44.0</ele><time>2026-03-24T16:06:29Z</time></trkpt><trkpt lat="48.86373776501642" lon="2.370277783203313"><ele>44.0</ele><time>2026-03-24T16:06:31Z</time></trkpt><trkpt lat="48.863820763225355" lon="2.370138462838716"><ele>44.0</ele><time>2026-03-24T16:06:33Z</time></trkpt><trkpt lat="48.863904979977264" lon="2.370002830945083"><ele>44.0</ele><time>2026-03-24T16:06:35Z</time></trkpt><trkpt lat="48.86394526383635" lon="2.3699285046134264"><ele>44.0</ele><time>2026-03-24T16:06:36Z</time></trkpt><trkpt lat="48.86398958316498" lon="2.3698481723487568"><ele>44.0</ele><time>2026-03-24T16:06:37Z</time></trkpt><trkpt lat="48.86404109868471" lon="2.3697595847802346"><ele>44.0</ele><time>2026-03-24T16:06:38Z</time></trkpt><trkpt lat="48.86410104964081" lon="2.3696836077208667"><ele>44.0</ele><time>2026-03-24T16:06:39Z</time></trkpt><trkpt lat="48.864153127397685" lon="2.3695944412559014"><ele>44.0</ele><time>2026-03-24T16:06:40Z</time></trkpt><trkpt lat="48.86420887809045" lon="2.3695033453840355"><ele>44.0</ele><time>2026-03-24T16:06:41Z</time></trkpt><trkpt lat="48.86425757262273" lon="2.3694157862973766"><ele>44.0</ele><time>2026-03-24T16:06:42Z</time></trkpt><trkpt lat="48.864308515802264" lon="2.3693248238595106"><ele>44.5</ele><time>2026-03-24T16:06:43Z</time></trkpt><trkpt lat="48.86435878873818" lon="2.3692432956793574"><ele>45.0</ele><time>2026-03-24T16:06:44Z</time></trkpt><trkpt lat="48.86440505581452" lon="2.369163821464121"><ele>45.5</ele><time>2026-03-24T16:06:45Z</time></trkpt><trkpt lat="48.864448738535906" lon="2.369090705906461"><ele>46.0</ele><time>2026-03-24T16:06:46Z</time></trkpt><trkpt lat="48.86452500083661" lon="2.3689556353008028"><ele>46.5</ele><time>2026-03-24T16:06:48.001Z</time></trkpt><trkpt lat="48.86460289153898" lon="2.368842129155896"><ele>47.0</ele><time>2026-03-24T16:06:50.001Z</time></trkpt><trkpt lat="48.86464645873894" lon="2.368770807509682"><ele>47.166666666666664</ele><time>2026-03-24T16:06:51.001Z</time></trkpt><trkpt lat="48.86469028739675" lon="2.36870110946018"><ele>47.33333333333333</ele><time>2026-03-24T16:06:52.001Z</time></trkpt><trkpt lat="48.8647703151849" lon="2.3685536088745236"><ele>47.5</ele><time>2026-03-24T16:06:54.001Z</time></trkpt><trkpt lat="48.86481510509831" lon="2.368463331862131"><ele>47.666666666666664</ele><time>2026-03-24T16:06:55.001Z</time></trkpt><trkpt lat="48.86486665222541" lon="2.3683771275726335"><ele>47.833333333333336</ele><time>2026-03-24T16:06:56.001Z</time></trkpt><trkpt lat="48.86491747381646" lon="2.36828939399226"><ele>48.0</ele><time>2026-03-24T16:06:57.001Z</time></trkpt><trkpt lat="48.86497699217492" lon="2.3681996731558703"><ele>48.0</ele><time>2026-03-24T16:06:58.001Z</time></trkpt><trkpt lat="48.86502713756553" lon="2.3681144276835626"><ele>48.0</ele><time>2026-03-24T16:06:59.001Z</time></trkpt><trkpt lat="48.86507740852102" lon="2.368031127309415"><ele>48.0</ele><time>2026-03-24T16:07:00.001Z</time></trkpt><trkpt lat="48.86512726021993" lon="2.367954109347786"><ele>48.0</ele><time>2026-03-24T16:07:01.001Z</time></trkpt><trkpt lat="48.86517661551547" lon="2.3678740277518617"><ele>48.0</ele><time>2026-03-24T16:07:02.001Z</time></trkpt><trkpt lat="48.865221335516466" lon="2.3678021945350265"><ele>48.0</ele><time>2026-03-24T16:07:03.001Z</time></trkpt><trkpt lat="48.86530667680737" lon="2.3676609699121585"><ele>47.833333333333336</ele><time>2026-03-24T16:07:05.001Z</time></trkpt><trkpt lat="48.86535317883023" lon="2.367584418809"><ele>47.666666666666664</ele><time>2026-03-24T16:07:06.001Z</time></trkpt><trkpt lat="48.86539879242686" lon="2.3675079139179678"><ele>47.5</ele><time>2026-03-24T16:07:07.001Z</time></trkpt><trkpt lat="48.865479526247235" lon="2.3673580673234036"><ele>47.33333333333333</ele><time>2026-03-24T16:07:09.001Z</time></trkpt><trkpt lat="48.86552676024239" lon="2.367275382658675"><ele>47.166666666666664</ele><time>2026-03-24T16:07:10.001Z</time></trkpt><trkpt lat="48.865579736112636" lon="2.367184898114986"><ele>47.0</ele><time>2026-03-24T16:07:11.001Z</time></trkpt><trkpt lat="48.86563288504591" lon="2.3670985188748426"><ele>46.83333333333333</ele><time>2026-03-24T16:07:12.001Z</time></trkpt><trkpt lat="48.865691499034334" lon="2.367012837607999"><ele>46.666666666666664</ele><time>2026-03-24T16:07:13.001Z</time></trkpt><trkpt lat="48.86574619753375" lon="2.3669201113988594"><ele>46.5</ele><time>2026-03-24T16:07:14.001Z</time></trkpt><trkpt lat="48.865798185624676" lon="2.366835807922731"><ele>46.333333333333336</ele><time>2026-03-24T16:07:15.001Z</time></trkpt><trkpt lat="48.865848624772404" lon="2.366752920246994"><ele>46.16666666666667</ele><time>2026-03-24T16:07:16.001Z</time></trkpt><trkpt lat="48.865891775834676" lon="2.3666685290250586"><ele>46.0</ele><time>2026-03-24T16:07:17.001Z</time></trkpt><trkpt lat="48.86596032323528" lon="2.366552316040939"><ele>45.833333333333336</ele><time>2026-03-24T16:07:19.001Z</time></trkpt><trkpt lat="48.86602799367366" lon="2.366427575895569"><ele>45.66666666666667</ele><time>2026-03-24T16:07:21.001Z</time></trkpt><trkpt lat="48.86606979251182" lon="2.3663548263224645"><ele>45.5</ele><time>2026-03-24T16:07:22.001Z</time></trkpt><trkpt lat="48.866113532169436" lon="2.366281556597011"><ele>45.333333333333336</ele><time>2026-03-24T16:07:23.001Z</time></trkpt><trkpt lat="48.866199568935514" lon="2.3661414951792703"><ele>45.166666666666664</ele><time>2026-03-24T16:07:25.001Z</time></trkpt><trkpt lat="48.86624756717957" lon="2.3660633745000874"><ele>45.0</ele><time>2026-03-24T16:07:26.001Z</time></trkpt><trkpt lat="48.866325636081974" lon="2.3659259760103013"><ele>44.833333333333336</ele><time>2026-03-24T16:07:28.001Z</time></trkpt><trkpt lat="48.8663693105052" lon="2.365846394410154"><ele>44.666666666666664</ele><time>2026-03-24T16:07:29.001Z</time></trkpt><trkpt lat="48.86645256784431" lon="2.3657174651931263"><ele>44.5</ele><time>2026-03-24T16:07:31.001Z</time></trkpt><trkpt lat="48.866508695479844" lon="2.3656172888634415"><ele>44.33333333333333</ele><time>2026-03-24T16:07:33.001Z</time></trkpt><trkpt lat="48.866553548597366" lon="2.3655469743762785"><ele>44.166666666666664</ele><time>2026-03-24T16:07:35.001Z</time></trkpt><trkpt lat="48.866609073379514" lon="2.3654599395937743"><ele>44.0</ele><time>2026-03-24T16:07:37.001Z</time></trkpt><trkpt lat="48.86665980308515" lon="2.365384425305595"><ele>43.5</ele><time>2026-03-24T16:07:40.001Z</time></trkpt><trkpt lat="48.8667132576171" lon="2.365323731366299"><ele>43.0</ele><time>2026-03-24T16:07:42.001Z</time></trkpt><trkpt lat="48.86678500525666" lon="2.3652284428282977"><ele>42.5</ele><time>2026-03-24T16:07:45.001Z</time></trkpt><trkpt lat="48.866839560620306" lon="2.3651348980693654"><ele>42.0</ele><time>2026-03-24T16:07:49.001Z</time></trkpt><trkpt lat="48.86681257530235" lon="2.3650134407498484"><ele>41.5</ele><time>2026-03-24T16:07:52.001Z</time></trkpt><trkpt lat="48.86674668876089" lon="2.3649768955081787"><ele>41.0</ele><time>2026-03-24T16:07:54.001Z</time></trkpt><trkpt lat="48.86667322804343" lon="2.364881690375783"><ele>41.4</ele><time>2026-03-24T16:07:58.001Z</time></trkpt><trkpt lat="48.86671231265497" lon="2.364636691177099"><ele>41.8</ele><time>2026-03-24T16:08:04.001Z</time></trkpt><trkpt lat="48.866766446458385" lon="2.3645627534438893"><ele>42.199999999999996</ele><time>2026-03-24T16:08:05.001Z</time></trkpt><trkpt lat="48.86684457639367" lon="2.3644249584328048"><ele>42.599999999999994</ele><time>2026-03-24T16:08:07.001Z</time></trkpt><trkpt lat="48.86688464512244" lon="2.364342756883096"><ele>43.0</ele><time>2026-03-24T16:08:08.001Z</time></trkpt><trkpt lat="48.866931248110795" lon="2.3642586474746667"><ele>42.66666666666667</ele><time>2026-03-24T16:08:09Z</time></trkpt><trkpt lat="48.866981627261005" lon="2.364192263140465"><ele>42.333333333333336</ele><time>2026-03-24T16:08:10Z</time></trkpt><trkpt lat="48.86703611240481" lon="2.3641164722306414"><ele>42.0</ele><time>2026-03-24T16:08:11Z</time></trkpt><trkpt lat="48.867097913272346" lon="2.363980922936401"><ele>41.666666666666664</ele><time>2026-03-24T16:08:13Z</time></trkpt><trkpt lat="48.867160155580564" lon="2.3638589735244944"><ele>41.33333333333333</ele><time>2026-03-24T16:08:17Z</time></trkpt><trkpt lat="48.86720878692618" lon="2.363770897151726"><ele>41.0</ele><time>2026-03-24T16:08:19Z</time></trkpt><trkpt lat="48.86727459849244" lon="2.363639012306937"><ele>41.0</ele><time>2026-03-24T16:08:21Z</time></trkpt><trkpt lat="48.86731912517045" lon="2.363568823323825"><ele>41.0</ele><time>2026-03-24T16:08:22Z</time></trkpt><trkpt lat="48.86740805207702" lon="2.363448820073946"><ele>41.0</ele><time>2026-03-24T16:08:24Z</time></trkpt><trkpt lat="48.86746002442536" lon="2.3633662727133795"><ele>41.0</ele><time>2026-03-24T16:08:27Z</time></trkpt><trkpt lat="48.86752867100285" lon="2.3632800395629125"><ele>41.0</ele><time>2026-03-24T16:08:37Z</time></trkpt><trkpt lat="48.867570290804444" lon="2.3632033153617207"><ele>41.0</ele><time>2026-03-24T16:08:39Z</time></trkpt><trkpt lat="48.86763085701875" lon="2.3630950210832666"><ele>42.0</ele><time>2026-03-24T16:08:41Z</time></trkpt><trkpt lat="48.86770710636914" lon="2.362952459449227"><ele>43.0</ele><time>2026-03-24T16:08:43Z</time></trkpt><trkpt lat="48.86774650708256" lon="2.362872783389697"><ele>44.0</ele><time>2026-03-24T16:08:44Z</time></trkpt><trkpt lat="48.86778384955896" lon="2.362792901849208"><ele>45.0</ele><time>2026-03-24T16:08:45Z</time></trkpt><trkpt lat="48.8678564157327" lon="2.362667809176534"><ele>46.0</ele><time>2026-03-24T16:08:47Z</time></trkpt><trkpt lat="48.867932745305886" lon="2.362522275775242"><ele>46.0</ele><time>2026-03-24T16:08:49Z</time></trkpt><trkpt lat="48.867983852466814" lon="2.3624085672447173"><ele>46.0</ele><time>2026-03-24T16:08:51Z</time></trkpt><trkpt lat="48.86801053577197" lon="2.362311627352205"><ele>46.0</ele><time>2026-03-24T16:09:10.001Z</time></trkpt><trkpt lat="48.868030273415044" lon="2.3621844736046995"><ele>46.0</ele><time>2026-03-24T16:09:12.001Z</time></trkpt><trkpt lat="48.8680672047217" lon="2.362026207297893"><ele>46.0</ele><time>2026-03-24T16:09:14.001Z</time></trkpt><trkpt lat="48.868100577362824" lon="2.361845722034823"><ele>46.16666666666667</ele><time>2026-03-24T16:09:16.001Z</time></trkpt><trkpt lat="48.86810722801648" lon="2.361742172386923"><ele>46.333333333333336</ele><time>2026-03-24T16:09:17.001Z</time></trkpt><trkpt lat="48.86811127006165" lon="2.361636162362454"><ele>46.5</ele><time>2026-03-24T16:09:18.001Z</time></trkpt><trkpt lat="48.868124749509015" lon="2.3615360455289864"><ele>46.666666666666664</ele><time>2026-03-24T16:09:19.001Z</time></trkpt><trkpt lat="48.868135847884375" lon="2.361441218651438"><ele>46.83333333333333</ele><time>2026-03-24T16:09:20.001Z</time></trkpt><trkpt lat="48.86815146236978" lon="2.3613465103985285"><ele>47.0</ele><time>2026-03-24T16:09:21.001Z</time></trkpt><trkpt lat="48.868187005866865" lon="2.3611771316957966"><ele>46.6</ele><time>2026-03-24T16:09:23.001Z</time></trkpt><trkpt lat="48.86822270645093" lon="2.3610178293564386"><ele>46.2</ele><time>2026-03-24T16:09:25.001Z</time></trkpt><trkpt lat="48.868255052590726" lon="2.3608561563765353"><ele>45.8</ele><time>2026-03-24T16:09:27.001Z</time></trkpt><trkpt lat="48.86828220599712" lon="2.3606757862186196"><ele>45.4</ele><time>2026-03-24T16:09:29.001Z</time></trkpt><trkpt lat="48.86829412742822" lon="2.360579464569289"><ele>45.0</ele><time>2026-03-24T16:09:30.001Z</time></trkpt><trkpt lat="48.868305222864514" lon="2.3604819433378017"><ele>45.714285714285715</ele><time>2026-03-24T16:09:31.001Z</time></trkpt><trkpt lat="48.868317125278814" lon="2.3603804571371465"><ele>46.42857142857143</ele><time>2026-03-24T16:09:32.001Z</time></trkpt><trkpt lat="48.86833202226095" lon="2.3602715779892125"><ele>47.142857142857146</ele><time>2026-03-24T16:09:33.001Z</time></trkpt><trkpt lat="48.868344811985104" lon="2.3601580527828867"><ele>47.85714285714286</ele><time>2026-03-24T16:09:34.001Z</time></trkpt><trkpt lat="48.868362097824466" lon="2.3600535625783716"><ele>48.57142857142857</ele><time>2026-03-24T16:09:35.001Z</time></trkpt><trkpt lat="48.86837504693274" lon="2.359947736384516"><ele>49.28571428571429</ele><time>2026-03-24T16:09:36.001Z</time></trkpt><trkpt lat="48.86838845776984" lon="2.359843679235866"><ele>50.0</ele><time>2026-03-24T16:09:37.001Z</time></trkpt><trkpt lat="48.86840459969217" lon="2.3597367765231385"><ele>50.00000000000001</ele><time>2026-03-24T16:09:38.001Z</time></trkpt><trkpt lat="48.86842617181028" lon="2.359621662326657"><ele>50.0</ele><time>2026-03-24T16:09:39.001Z</time></trkpt><trkpt lat="48.86844188840334" lon="2.359491805100007"><ele>50.0</ele><time>2026-03-24T16:09:40.001Z</time></trkpt><trkpt lat="48.86846365340603" lon="2.359364082635096"><ele>50.0</ele><time>2026-03-24T16:09:41.001Z</time></trkpt><trkpt lat="48.86847831463693" lon="2.3592358532912443"><ele>50.00000000000001</ele><time>2026-03-24T16:09:42.001Z</time></trkpt><trkpt lat="48.868497473478925" lon="2.3591059046080542"><ele>50.0</ele><time>2026-03-24T16:09:43.001Z</time></trkpt><trkpt lat="48.86852253174881" lon="2.358974731774856"><ele>49.6</ele><time>2026-03-24T16:09:44.001Z</time></trkpt><trkpt lat="48.86854402905323" lon="2.3588386459758577"><ele>49.2</ele><time>2026-03-24T16:09:45.001Z</time></trkpt><trkpt lat="48.86856363916376" lon="2.358710223743695"><ele>48.8</ele><time>2026-03-24T16:09:46.001Z</time></trkpt><trkpt lat="48.86858615475571" lon="2.3585704699647354"><ele>48.4</ele><time>2026-03-24T16:09:47.001Z</time></trkpt><trkpt lat="48.86860565010431" lon="2.3584391746483666"><ele>48.0</ele><time>2026-03-24T16:09:48.001Z</time></trkpt><trkpt lat="48.868625911926756" lon="2.3583000683044677"><ele>48.0</ele><time>2026-03-24T16:09:49.001Z</time></trkpt><trkpt lat="48.8686497259016" lon="2.3581723854626273"><ele>48.0</ele><time>2026-03-24T16:09:50.001Z</time></trkpt><trkpt lat="48.86866352339568" lon="2.3580299066938037"><ele>48.0</ele><time>2026-03-24T16:09:51.001Z</time></trkpt><trkpt lat="48.868679600559695" lon="2.3578901888332022"><ele>48.0</ele><time>2026-03-24T16:09:52.001Z</time></trkpt><trkpt lat="48.86870205292465" lon="2.3577598184483604"><ele>48.0</ele><time>2026-03-24T16:09:53.001Z</time></trkpt><trkpt lat="48.868722284736236" lon="2.3576313540766693"><ele>48.166666666666664</ele><time>2026-03-24T16:09:54.001Z</time></trkpt><trkpt lat="48.8687415184072" lon="2.3575092600727476"><ele>48.33333333333333</ele><time>2026-03-24T16:09:55.001Z</time></trkpt><trkpt lat="48.86875492506943" lon="2.3573685284666834"><ele>48.5</ele><time>2026-03-24T16:09:56.001Z</time></trkpt><trkpt lat="48.8687760960095" lon="2.357240070009066"><ele>48.666666666666664</ele><time>2026-03-24T16:09:57.001Z</time></trkpt><trkpt lat="48.86879575479263" lon="2.357111689196144"><ele>48.83333333333333</ele><time>2026-03-24T16:09:58.001Z</time></trkpt><trkpt lat="48.8688129972786" lon="2.3569913699535996"><ele>49.0</ele><time>2026-03-24T16:09:59.001Z</time></trkpt><trkpt lat="48.8688339685413" lon="2.3568573625821307"><ele>49.0</ele><time>2026-03-24T16:10:00.001Z</time></trkpt><trkpt lat="48.86885556273832" lon="2.356723340207569"><ele>49.0</ele><time>2026-03-24T16:10:01.001Z</time></trkpt><trkpt lat="48.868871672617104" lon="2.356603144346162"><ele>49.0</ele><time>2026-03-24T16:10:02.001Z</time></trkpt><trkpt lat="48.86888620384689" lon="2.356501007007326"><ele>49.0</ele><time>2026-03-24T16:10:03.001Z</time></trkpt><trkpt lat="48.86891271239988" lon="2.3563239845972372"><ele>49.0</ele><time>2026-03-24T16:10:05.001Z</time></trkpt><trkpt lat="48.868952731462606" lon="2.3561342185850416"><ele>48.99999999999999</ele><time>2026-03-24T16:10:07.001Z</time></trkpt><trkpt lat="48.868968995215724" lon="2.355985280992943"><ele>49.0</ele><time>2026-03-24T16:10:09.001Z</time></trkpt><trkpt lat="48.86898980695232" lon="2.355868950740143"><ele>49.0</ele><time>2026-03-24T16:10:14.001Z</time></trkpt><trkpt lat="48.86902873223142" lon="2.3557865576603914"><ele>49.0</ele><time>2026-03-24T16:10:19.001Z</time></trkpt><trkpt lat="48.86906185891426" lon="2.3556561330949743"><ele>48.99999999999999</ele><time>2026-03-24T16:10:22.001Z</time></trkpt><trkpt lat="48.86908814304332" lon="2.3555356463466115"><ele>49.0</ele><time>2026-03-24T16:10:24.001Z</time></trkpt><trkpt lat="48.8691165345304" lon="2.3554333223763857"><ele>49.166666666666664</ele><time>2026-03-24T16:10:29.001Z</time></trkpt><trkpt lat="48.86912387792671" lon="2.355304408867656"><ele>49.33333333333333</ele><time>2026-03-24T16:10:32.001Z</time></trkpt><trkpt lat="48.86915014891956" lon="2.3551905796459707"><ele>49.5</ele><time>2026-03-24T16:10:35.001Z</time></trkpt><trkpt lat="48.869198556994505" lon="2.355073030944204"><ele>49.66666666666667</ele><time>2026-03-24T16:10:38.001Z</time></trkpt><trkpt lat="48.869218505969116" lon="2.3549127389891793"><ele>49.833333333333336</ele><time>2026-03-24T16:10:40.001Z</time></trkpt><trkpt lat="48.869238995307725" lon="2.3548203428783956"><ele>50.0</ele><time>2026-03-24T16:10:41.001Z</time></trkpt><trkpt lat="48.86927565062385" lon="2.354654442816543"><ele>49.833333333333336</ele><time>2026-03-24T16:10:43.001Z</time></trkpt><trkpt lat="48.86929905472579" lon="2.354543786515961"><ele>49.66666666666667</ele><time>2026-03-24T16:10:45.001Z</time></trkpt><trkpt lat="48.869332855837996" lon="2.3544528284850412"><ele>49.5</ele><time>2026-03-24T16:10:48.001Z</time></trkpt><trkpt lat="48.86936151597576" lon="2.3543251445701863"><ele>49.33333333333333</ele><time>2026-03-24T16:10:56.001Z</time></trkpt><trkpt lat="48.869386404608534" lon="2.354212831861399"><ele>49.166666666666664</ele><time>2026-03-24T16:10:58.001Z</time></trkpt><trkpt lat="48.869419356870324" lon="2.3540627255820983"><ele>49.0</ele><time>2026-03-24T16:11:00.001Z</time></trkpt><trkpt lat="48.86946095054717" lon="2.353893951925471"><ele>48.166666666666664</ele><time>2026-03-24T16:11:02.001Z</time></trkpt><trkpt lat="48.86949956878432" lon="2.3537037523732525"><ele>47.33333333333333</ele><time>2026-03-24T16:11:04.001Z</time></trkpt><trkpt lat="48.869520030863455" lon="2.353599498055587"><ele>46.5</ele><time>2026-03-24T16:11:05.001Z</time></trkpt><trkpt lat="48.86953737492783" lon="2.3534928987975525"><ele>45.666666666666664</ele><time>2026-03-24T16:11:06.001Z</time></trkpt><trkpt lat="48.86954754607862" lon="2.353395530914543"><ele>44.83333333333333</ele><time>2026-03-24T16:11:07.001Z</time></trkpt><trkpt lat="48.86956484698474" lon="2.3532997804804454"><ele>44.0</ele><time>2026-03-24T16:11:08.001Z</time></trkpt><trkpt lat="48.86960413155179" lon="2.3531282300717438"><ele>44.33333333333333</ele><time>2026-03-24T16:11:10.001Z</time></trkpt><trkpt lat="48.86962924729525" lon="2.35303711095912"><ele>44.666666666666664</ele><time>2026-03-24T16:11:11.001Z</time></trkpt><trkpt lat="48.86967152598268" lon="2.3528505626899756"><ele>45.0</ele><time>2026-03-24T16:11:13.001Z</time></trkpt><trkpt lat="48.86970758175386" lon="2.352672477219208"><ele>45.333333333333336</ele><time>2026-03-24T16:11:15.001Z</time></trkpt><trkpt lat="48.86972766606859" lon="2.3525796499045217"><ele>45.66666666666667</ele><time>2026-03-24T16:11:16.001Z</time></trkpt><trkpt lat="48.8697491596686" lon="2.3524856141396393"><ele>46.0</ele><time>2026-03-24T16:11:17.001Z</time></trkpt><trkpt lat="48.86976938062562" lon="2.3523854621576517"><ele>46.0</ele><time>2026-03-24T16:11:18.001Z</time></trkpt><trkpt lat="48.869791770807474" lon="2.3522773995750828"><ele>46.0</ele><time>2026-03-24T16:11:19.001Z</time></trkpt><trkpt lat="48.86982090599512" lon="2.352174250707741"><ele>46.0</ele><time>2026-03-24T16:11:20.001Z</time></trkpt><trkpt lat="48.869850669958964" lon="2.352072518922841"><ele>46.0</ele><time>2026-03-24T16:11:21.001Z</time></trkpt><trkpt lat="48.86987849904651" lon="2.351956593222604"><ele>46.0</ele><time>2026-03-24T16:11:22.001Z</time></trkpt><trkpt lat="48.86990858618817" lon="2.351844425060815"><ele>46.0</ele><time>2026-03-24T16:11:23.001Z</time></trkpt><trkpt lat="48.8699297880321" lon="2.3517374028754503"><ele>47.0</ele><time>2026-03-24T16:11:24.001Z</time></trkpt><trkpt lat="48.869946125798265" lon="2.3516063930469224"><ele>48.0</ele><time>2026-03-24T16:11:25.001Z</time></trkpt><trkpt lat="48.86997204420419" lon="2.351487943509747"><ele>49.0</ele><time>2026-03-24T16:11:26.001Z</time></trkpt><trkpt lat="48.869995194541055" lon="2.3513639506523165"><ele>50.0</ele><time>2026-03-24T16:11:27.001Z</time></trkpt><trkpt lat="48.870016544943425" lon="2.3512479524308065"><ele>50.99999999999999</ele><time>2026-03-24T16:11:28.001Z</time></trkpt><trkpt lat="48.87005283734202" lon="2.3511485430895807"><ele>52.0</ele><time>2026-03-24T16:11:30.001Z</time></trkpt><trkpt lat="48.87006822736543" lon="2.351043830780563"><ele>51.83333333333333</ele><time>2026-03-24T16:11:32.001Z</time></trkpt><trkpt lat="48.87009435761277" lon="2.350931717735532"><ele>51.666666666666664</ele><time>2026-03-24T16:11:34.001Z</time></trkpt><trkpt lat="48.87012571458332" lon="2.3507799253330917"><ele>51.5</ele><time>2026-03-24T16:11:36.001Z</time></trkpt><trkpt lat="48.87015994256106" lon="2.3505955762460253"><ele>51.33333333333333</ele><time>2026-03-24T16:11:38.001Z</time></trkpt><trkpt lat="48.87018030463146" lon="2.350503232490714"><ele>51.166666666666664</ele><time>2026-03-24T16:11:39.001Z</time></trkpt><trkpt lat="48.87019810266076" lon="2.3504099664564935"><ele>51.0</ele><time>2026-03-24T16:11:40.001Z</time></trkpt><trkpt lat="48.870216858583525" lon="2.35029737625967"><ele>50.666666666666664</ele><time>2026-03-24T16:11:41.001Z</time></trkpt><trkpt lat="48.870242186995014" lon="2.3502035527026655"><ele>50.33333333333333</ele><time>2026-03-24T16:11:42.001Z</time></trkpt><trkpt lat="48.87026708526043" lon="2.350097492724643"><ele>50.0</ele><time>2026-03-24T16:11:43.001Z</time></trkpt><trkpt lat="48.87028492354139" lon="2.349989600544732"><ele>49.666666666666664</ele><time>2026-03-24T16:11:44.001Z</time></trkpt><trkpt lat="48.87031755411601" lon="2.3498726672671055"><ele>49.33333333333333</ele><time>2026-03-24T16:11:46.001Z</time></trkpt><trkpt lat="48.870339323813525" lon="2.3497674647059648"><ele>49.0</ele><time>2026-03-24T16:11:50.001Z</time></trkpt><trkpt lat="48.87037248530567" lon="2.3496298131242797"><ele>48.800000000000004</ele><time>2026-03-24T16:11:52.001Z</time></trkpt><trkpt lat="48.87042949286209" lon="2.349472108648588"><ele>48.6</ele><time>2026-03-24T16:11:54.001Z</time></trkpt><trkpt lat="48.87044434680876" lon="2.3492961677042707"><ele>48.4</ele><time>2026-03-24T16:11:56.001Z</time></trkpt><trkpt lat="48.87049250914471" lon="2.349118920211539"><ele>48.2</ele><time>2026-03-24T16:11:58.001Z</time></trkpt><trkpt lat="48.87051163333131" lon="2.3490188008122623"><ele>48.0</ele><time>2026-03-24T16:11:59.001Z</time></trkpt><trkpt lat="48.870537354984805" lon="2.348903457927356"><ele>48.0</ele><time>2026-03-24T16:12:00.001Z</time></trkpt><trkpt lat="48.8705630769692" lon="2.3487877968090247"><ele>48.0</ele><time>2026-03-24T16:12:01.001Z</time></trkpt><trkpt lat="48.870588863431166" lon="2.348667029421425"><ele>48.0</ele><time>2026-03-24T16:12:02.001Z</time></trkpt><trkpt lat="48.87061216404321" lon="2.348539510965021"><ele>48.0</ele><time>2026-03-24T16:12:03.001Z</time></trkpt><trkpt lat="48.8706312152005" lon="2.348412715434262"><ele>48.0</ele><time>2026-03-24T16:12:04.001Z</time></trkpt><trkpt lat="48.87064753721339" lon="2.3483086394343404"><ele>48.0</ele><time>2026-03-24T16:12:05.001Z</time></trkpt><trkpt lat="48.87067259588177" lon="2.3482058999221973"><ele>48.0</ele><time>2026-03-24T16:12:06.001Z</time></trkpt><trkpt lat="48.87069030509428" lon="2.348111193909162"><ele>48.0</ele><time>2026-03-24T16:12:08.001Z</time></trkpt><trkpt lat="48.870722930535344" lon="2.3480043411532496"><ele>48.0</ele><time>2026-03-24T16:12:18.001Z</time></trkpt><trkpt lat="48.87074189789966" lon="2.347903528748285"><ele>48.0</ele><time>2026-03-24T16:12:21.001Z</time></trkpt><trkpt lat="48.870752471245375" lon="2.347805816167912"><ele>48.0</ele><time>2026-03-24T16:12:23.001Z</time></trkpt><trkpt lat="48.87076710279991" lon="2.3476630996755445"><ele>48.0</ele><time>2026-03-24T16:12:25.001Z</time></trkpt><trkpt lat="48.87079830424723" lon="2.3475327617925985"><ele>48.4</ele><time>2026-03-24T16:12:27.001Z</time></trkpt><trkpt lat="48.87081712642402" lon="2.3473834193268797"><ele>48.8</ele><time>2026-03-24T16:12:29.001Z</time></trkpt><trkpt lat="48.87083772404874" lon="2.347232748338204"><ele>49.2</ele><time>2026-03-24T16:12:31.001Z</time></trkpt><trkpt lat="48.8708655260722" lon="2.347087613975498"><ele>49.6</ele><time>2026-03-24T16:12:33.001Z</time></trkpt><trkpt lat="48.87088759378246" lon="2.346938849280441"><ele>50.0</ele><time>2026-03-24T16:12:35.001Z</time></trkpt><trkpt lat="48.87091743787136" lon="2.346775136671871"><ele>50.16666666666667</ele><time>2026-03-24T16:12:37.001Z</time></trkpt><trkpt lat="48.87094889624252" lon="2.3466038220655006"><ele>50.333333333333336</ele><time>2026-03-24T16:12:39.001Z</time></trkpt><trkpt lat="48.870965066762494" lon="2.3464977913546523"><ele>50.5</ele><time>2026-03-24T16:12:40.001Z</time></trkpt><trkpt lat="48.87098489004623" lon="2.346402657606297"><ele>50.66666666666667</ele><time>2026-03-24T16:12:41.001Z</time></trkpt><trkpt lat="48.87100067363274" lon="2.346303048285997"><ele>50.833333333333336</ele><time>2026-03-24T16:12:42.001Z</time></trkpt><trkpt lat="48.8710231526273" lon="2.346115746519526"><ele>51.0</ele><time>2026-03-24T16:12:44.001Z</time></trkpt><trkpt lat="48.871046958260585" lon="2.3459678374270134"><ele>51.0</ele><time>2026-03-24T16:12:46.001Z</time></trkpt><trkpt lat="48.87106849840682" lon="2.3458005662604533"><ele>51.0</ele><time>2026-03-24T16:12:48.001Z</time></trkpt><trkpt lat="48.871088334905544" lon="2.3456993195120295"><ele>51.0</ele><time>2026-03-24T16:12:49.001Z</time></trkpt><trkpt lat="48.87111772755122" lon="2.3455158126029794"><ele>51.0</ele><time>2026-03-24T16:12:51.001Z</time></trkpt><trkpt lat="48.87114502917962" lon="2.3453608725652333"><ele>51.0</ele><time>2026-03-24T16:12:53.001Z</time></trkpt><trkpt lat="48.87117151623799" lon="2.345200475914325"><ele>50.666666666666664</ele><time>2026-03-24T16:12:55.001Z</time></trkpt><trkpt lat="48.87120397994657" lon="2.345037506884934"><ele>50.33333333333333</ele><time>2026-03-24T16:12:57.001Z</time></trkpt><trkpt lat="48.87122687429558" lon="2.3448776247557404"><ele>50.0</ele><time>2026-03-24T16:12:59.001Z</time></trkpt><trkpt lat="48.871240796349134" lon="2.3447813206505566"><ele>49.666666666666664</ele><time>2026-03-24T16:13:00.001Z</time></trkpt><trkpt lat="48.8712573811491" lon="2.3446767519845704"><ele>49.33333333333333</ele><time>2026-03-24T16:13:01.001Z</time></trkpt><trkpt lat="48.871275310441355" lon="2.3445645327856934"><ele>49.0</ele><time>2026-03-24T16:13:02.001Z</time></trkpt><trkpt lat="48.87129473815114" lon="2.3444501472053934"><ele>48.99999999999999</ele><time>2026-03-24T16:13:03.001Z</time></trkpt><trkpt lat="48.87131799384076" lon="2.3443414886275744"><ele>49.0</ele><time>2026-03-24T16:13:04.001Z</time></trkpt><trkpt lat="48.8713371830695" lon="2.3442266935884546"><ele>49.0</ele><time>2026-03-24T16:13:05.001Z</time></trkpt><trkpt lat="48.8713737580404" lon="2.344016173884958"><ele>49.0</ele><time>2026-03-24T16:13:07.001Z</time></trkpt><trkpt lat="48.871390294486424" lon="2.343922173695905"><ele>48.99999999999999</ele><time>2026-03-24T16:13:08.001Z</time></trkpt><trkpt lat="48.87140401974708" lon="2.3438179214211883"><ele>49.0</ele><time>2026-03-24T16:13:09.001Z</time></trkpt><trkpt lat="48.871435516558414" lon="2.3436404741948325"><ele>48.6</ele><time>2026-03-24T16:13:11.001Z</time></trkpt><trkpt lat="48.87144970822182" lon="2.343543049356884"><ele>48.2</ele><time>2026-03-24T16:13:12.001Z</time></trkpt><trkpt lat="48.87147725899847" lon="2.343375917089074"><ele>47.800000000000004</ele><time>2026-03-24T16:13:14.001Z</time></trkpt><trkpt lat="48.87150076007243" lon="2.3432212098831404"><ele>47.400000000000006</ele><time>2026-03-24T16:13:16.001Z</time></trkpt><trkpt lat="48.87153952886704" lon="2.3431120846072537"><ele>47.0</ele><time>2026-03-24T16:13:19.001Z</time></trkpt><trkpt lat="48.871645072673324" lon="2.3431231274601134"><ele>47.0</ele><time>2026-03-24T16:13:21.001Z</time></trkpt><trkpt lat="48.87173436335561" lon="2.343153976900615"><ele>47.0</ele><time>2026-03-24T16:13:23.001Z</time></trkpt><trkpt lat="48.87180204658362" lon="2.3431773886021316"><ele>47.0</ele><time>2026-03-24T16:13:24.001Z</time></trkpt><trkpt lat="48.871870928219415" lon="2.343174569013243"><ele>47.0</ele><time>2026-03-24T16:13:25.001Z</time></trkpt><trkpt lat="48.871940781916585" lon="2.3431866612510124"><ele>47.0</ele><time>2026-03-24T16:13:26.001Z</time></trkpt><trkpt lat="48.87200872285688" lon="2.3432191708785153"><ele>47.0</ele><time>2026-03-24T16:13:27.001Z</time></trkpt><trkpt lat="48.872096062187545" lon="2.3432234176001203"><ele>46.83333333333333</ele><time>2026-03-24T16:13:28.001Z</time></trkpt><trkpt lat="48.87216190260937" lon="2.343215869462419"><ele>46.666666666666664</ele><time>2026-03-24T16:13:29.001Z</time></trkpt><trkpt lat="48.87224226917214" lon="2.343215847683499"><ele>46.5</ele><time>2026-03-24T16:13:30.001Z</time></trkpt><trkpt lat="48.87231386011037" lon="2.343195544438433"><ele>46.333333333333336</ele><time>2026-03-24T16:13:31.001Z</time></trkpt><trkpt lat="48.87238036388088" lon="2.343197687153013"><ele>46.16666666666667</ele><time>2026-03-24T16:13:32.001Z</time></trkpt><trkpt lat="48.87248399436516" lon="2.34317965035656"><ele>46.0</ele><time>2026-03-24T16:13:34.001Z</time></trkpt><trkpt lat="48.87256648251099" lon="2.3431532816042897"><ele>46.0</ele><time>2026-03-24T16:13:36.001Z</time></trkpt><trkpt lat="48.87266055517746" lon="2.34313676600488"><ele>46.0</ele><time>2026-03-24T16:13:38.001Z</time></trkpt><trkpt lat="48.87276308636357" lon="2.343110491737755"><ele>46.0</ele><time>2026-03-24T16:13:40.001Z</time></trkpt><trkpt lat="48.87289532184816" lon="2.3430922255926228"><ele>46.0</ele><time>2026-03-24T16:13:42.001Z</time></trkpt><trkpt lat="48.87300536082523" lon="2.343078753230955"><ele>46.0</ele><time>2026-03-24T16:13:44.001Z</time></trkpt><trkpt lat="48.87311614076503" lon="2.3430567123801"><ele>46.16666666666667</ele><time>2026-03-24T16:13:46.001Z</time></trkpt><trkpt lat="48.87322650705905" lon="2.3429906139023835"><ele>46.333333333333336</ele><time>2026-03-24T16:13:48.001Z</time></trkpt><trkpt lat="48.87329955390032" lon="2.3429610229279785"><ele>46.5</ele><time>2026-03-24T16:13:49.001Z</time></trkpt><trkpt lat="48.87336525299297" lon="2.342946461724207"><ele>46.666666666666664</ele><time>2026-03-24T16:13:50.001Z</time></trkpt><trkpt lat="48.87342697479341" lon="2.3429159951203613"><ele>46.83333333333333</ele><time>2026-03-24T16:13:51.001Z</time></trkpt><trkpt lat="48.87353231897565" lon="2.342874723339847"><ele>47.0</ele><time>2026-03-24T16:13:53.001Z</time></trkpt><trkpt lat="48.87362156228963" lon="2.3427959336290924"><ele>46.666666666666664</ele><time>2026-03-24T16:13:55.001Z</time></trkpt><trkpt lat="48.873717761107486" lon="2.342703063195375"><ele>46.33333333333333</ele><time>2026-03-24T16:13:57.001Z</time></trkpt><trkpt lat="48.87378747618937" lon="2.342653944436646"><ele>46.0</ele><time>2026-03-24T16:14:00.001Z</time></trkpt><trkpt lat="48.873852861582186" lon="2.3425862316292507"><ele>45.666666666666664</ele><time>2026-03-24T16:14:05.001Z</time></trkpt><trkpt lat="48.87389868925656" lon="2.3425114556771263"><ele>45.333333333333336</ele><time>2026-03-24T16:14:09.001Z</time></trkpt><trkpt lat="48.873986205489636" lon="2.342441968471668"><ele>45.0</ele><time>2026-03-24T16:14:12.001Z</time></trkpt><trkpt lat="48.87407363257167" lon="2.3423578907945553"><ele>45.0</ele><time>2026-03-24T16:14:14.001Z</time></trkpt><trkpt lat="48.874170798955234" lon="2.3422492541489492"><ele>45.0</ele><time>2026-03-24T16:14:16.001Z</time></trkpt><trkpt lat="48.874227344032505" lon="2.34216656688492"><ele>45.0</ele><time>2026-03-24T16:14:17.001Z</time></trkpt><trkpt lat="48.87428193900319" lon="2.342087509458247"><ele>45.0</ele><time>2026-03-24T16:14:18.001Z</time></trkpt><trkpt lat="48.8743395347595" lon="2.341998361332211"><ele>45.0</ele><time>2026-03-24T16:14:19.001Z</time></trkpt><trkpt lat="48.87439554416353" lon="2.3419045081953644"><ele>45.0</ele><time>2026-03-24T16:14:20.001Z</time></trkpt><trkpt lat="48.87445719345154" lon="2.341809279632835"><ele>45.0</ele><time>2026-03-24T16:14:21.001Z</time></trkpt><trkpt lat="48.874524455066535" lon="2.34171427473987"><ele>45.0</ele><time>2026-03-24T16:14:22.001Z</time></trkpt><trkpt lat="48.87459085418252" lon="2.3416242626608916"><ele>45.0</ele><time>2026-03-24T16:14:23.001Z</time></trkpt><trkpt lat="48.87465122699419" lon="2.341534743565221"><ele>45.0</ele><time>2026-03-24T16:14:24.001Z</time></trkpt><trkpt lat="48.874712548608365" lon="2.3414493080876024"><ele>45.0</ele><time>2026-03-24T16:14:25.001Z</time></trkpt><trkpt lat="48.874769831614024" lon="2.3413781564544935"><ele>45.0</ele><time>2026-03-24T16:14:26.001Z</time></trkpt><trkpt lat="48.87483725564839" lon="2.3412967468465435"><ele>45.5</ele><time>2026-03-24T16:14:28Z</time></trkpt><trkpt lat="48.8748926695618" lon="2.3412478312774967"><ele>46.0</ele><time>2026-03-24T16:14:51Z</time></trkpt><trkpt lat="48.87495501770231" lon="2.3411823365783153"><ele>46.5</ele><time>2026-03-24T16:14:57Z</time></trkpt><trkpt lat="48.875043669746084" lon="2.341093568215879"><ele>47.0</ele><time>2026-03-24T16:15:01Z</time></trkpt><trkpt lat="48.8751212380154" lon="2.3410208726006183"><ele>47.5</ele><time>2026-03-24T16:15:04Z</time></trkpt><trkpt lat="48.875188663501234" lon="2.3409599896210453"><ele>48.0</ele><time>2026-03-24T16:15:07Z</time></trkpt><trkpt lat="48.875247735832865" lon="2.3409070818603803"><ele>48.166666666666664</ele><time>2026-03-24T16:15:10Z</time></trkpt><trkpt lat="48.87531090916478" lon="2.340851810586931"><ele>48.33333333333333</ele><time>2026-03-24T16:15:13Z</time></trkpt><trkpt lat="48.87537788857122" lon="2.3407941995581987"><ele>48.5</ele><time>2026-03-24T16:15:15Z</time></trkpt><trkpt lat="48.87544901274356" lon="2.34071703963046"><ele>48.666666666666664</ele><time>2026-03-24T16:15:18Z</time></trkpt><trkpt lat="48.87551990783326" lon="2.340660736294512"><ele>48.83333333333333</ele><time>2026-03-24T16:15:21Z</time></trkpt><trkpt lat="48.87560011445296" lon="2.34059495870829"><ele>49.0</ele><time>2026-03-24T16:15:24Z</time></trkpt><trkpt lat="48.87567461018569" lon="2.3405281379151077"><ele>48.714285714285715</ele><time>2026-03-24T16:15:28.001Z</time></trkpt><trkpt lat="48.87572475351162" lon="2.340465761573953"><ele>48.42857142857143</ele><time>2026-03-24T16:15:57.001Z</time></trkpt><trkpt lat="48.875785551354454" lon="2.340430236723091"><ele>48.14285714285714</ele><time>2026-03-24T16:15:59.001Z</time></trkpt><trkpt lat="48.87585068276461" lon="2.3403686267976274"><ele>47.85714285714286</ele><time>2026-03-24T16:16:01.001Z</time></trkpt><trkpt lat="48.87592933616855" lon="2.3403019493371575"><ele>47.57142857142857</ele><time>2026-03-24T16:16:03.001Z</time></trkpt><trkpt lat="48.87598851427616" lon="2.3402646513081504"><ele>47.285714285714285</ele><time>2026-03-24T16:16:05.001Z</time></trkpt><trkpt lat="48.876039754159954" lon="2.340173861164044"><ele>47.0</ele><time>2026-03-24T16:16:22.001Z</time></trkpt><trkpt lat="48.87609960894075" lon="2.340121094720286"><ele>47.0</ele><time>2026-03-24T16:16:24.001Z</time></trkpt><trkpt lat="48.87618510049531" lon="2.3400296061318895"><ele>47.0</ele><time>2026-03-24T16:16:26.001Z</time></trkpt><trkpt lat="48.87629984054221" lon="2.339936438013389"><ele>47.0</ele><time>2026-03-24T16:16:28.001Z</time></trkpt><trkpt lat="48.876359294605706" lon="2.339878331936894"><ele>47.0</ele><time>2026-03-24T16:16:29.001Z</time></trkpt><trkpt lat="48.87641430233118" lon="2.339799500259612"><ele>47.0</ele><time>2026-03-24T16:16:30.001Z</time></trkpt><trkpt lat="48.87646965929296" lon="2.3397250632534563"><ele>47.0</ele><time>2026-03-24T16:16:31.001Z</time></trkpt><trkpt lat="48.876523436863835" lon="2.339651223637038"><ele>47.0</ele><time>2026-03-24T16:16:32.001Z</time></trkpt><trkpt lat="48.87657930268437" lon="2.3395823911767373"><ele>47.0</ele><time>2026-03-24T16:16:33.001Z</time></trkpt><trkpt lat="48.87667241805754" lon="2.3394614811748258"><ele>47.0</ele><time>2026-03-24T16:16:35.001Z</time></trkpt><trkpt lat="48.876740506506934" lon="2.339335824923222"><ele>47.0</ele><time>2026-03-24T16:16:37.001Z</time></trkpt><trkpt lat="48.87680406536146" lon="2.3392543763857083"><ele>48.0</ele><time>2026-03-24T16:16:39.001Z</time></trkpt><trkpt lat="48.876880208610245" lon="2.3390916596631905"><ele>49.0</ele><time>2026-03-24T16:16:43Z</time></trkpt><trkpt lat="48.87701661980537" lon="2.3392740683601474"><ele>50.0</ele><time>2026-03-24T16:16:44Z</time></trkpt><trkpt lat="48.87712239520868" lon="2.339326473203944"><ele>51.0</ele><time>2026-03-24T16:16:46Z</time></trkpt><trkpt lat="48.8771858080854" lon="2.339360773602128"><ele>51.0</ele><time>2026-03-24T16:16:47Z</time></trkpt><trkpt lat="48.87725083247774" lon="2.3393688690211887"><ele>51.0</ele><time>2026-03-24T16:16:48Z</time></trkpt><trkpt lat="48.87732249063082" lon="2.3393918891320826"><ele>51.0</ele><time>2026-03-24T16:16:49Z</time></trkpt><trkpt lat="48.87738489952025" lon="2.3394066246332557"><ele>51.0</ele><time>2026-03-24T16:16:50Z</time></trkpt><trkpt lat="48.8774616331657" lon="2.339436286268338"><ele>51.0</ele><time>2026-03-24T16:16:51Z</time></trkpt><trkpt lat="48.87753250439665" lon="2.339457229179518"><ele>51.0</ele><time>2026-03-24T16:16:52Z</time></trkpt><trkpt lat="48.877605160628924" lon="2.339476130997863"><ele>51.0</ele><time>2026-03-24T16:16:53Z</time></trkpt><trkpt lat="48.87767690716124" lon="2.339492264842129"><ele>51.333333333333336</ele><time>2026-03-24T16:16:54Z</time></trkpt><trkpt lat="48.87774307897046" lon="2.339507882480214"><ele>51.66666666666667</ele><time>2026-03-24T16:16:55Z</time></trkpt><trkpt lat="48.87782459422418" lon="2.339532210698434"><ele>52.0</ele><time>2026-03-24T16:16:56Z</time></trkpt><trkpt lat="48.877900142961074" lon="2.339549311187063"><ele>52.333333333333336</ele><time>2026-03-24T16:16:57Z</time></trkpt><trkpt lat="48.87797654335938" lon="2.339560214809606"><ele>52.66666666666667</ele><time>2026-03-24T16:16:58Z</time></trkpt><trkpt lat="48.87805088732724" lon="2.3395685600667453"><ele>53.0</ele><time>2026-03-24T16:16:59Z</time></trkpt><trkpt lat="48.8781253618737" lon="2.339588522139808"><ele>53.00000000000001</ele><time>2026-03-24T16:17:00Z</time></trkpt><trkpt lat="48.87819430625328" lon="2.339637773177925"><ele>53.0</ele><time>2026-03-24T16:17:01Z</time></trkpt><trkpt lat="48.878259071482844" lon="2.339661250360229"><ele>53.0</ele><time>2026-03-24T16:17:02Z</time></trkpt><trkpt lat="48.87833529285115" lon="2.3396812367087434"><ele>53.0</ele><time>2026-03-24T16:17:03Z</time></trkpt><trkpt lat="48.87839881710169" lon="2.339683645527693"><ele>53.00000000000001</ele><time>2026-03-24T16:17:04Z</time></trkpt><trkpt lat="48.87851232592951" lon="2.339723713615588"><ele>53.0</ele><time>2026-03-24T16:17:06Z</time></trkpt><trkpt lat="48.878658088221556" lon="2.339759578385848"><ele>54.333333333333336</ele><time>2026-03-24T16:17:08Z</time></trkpt><trkpt lat="48.87873592811444" lon="2.339783807418316"><ele>55.66666666666667</ele><time>2026-03-24T16:17:09Z</time></trkpt><trkpt lat="48.878806077546386" lon="2.3398056621368615"><ele>57.0</ele><time>2026-03-24T16:17:10Z</time></trkpt><trkpt lat="48.878870911580925" lon="2.339826262002852"><ele>58.33333333333333</ele><time>2026-03-24T16:17:11Z</time></trkpt><trkpt lat="48.87893333983067" lon="2.339844592460913"><ele>59.666666666666664</ele><time>2026-03-24T16:17:12Z</time></trkpt><trkpt lat="48.87906040835848" lon="2.339871510027591"><ele>61.0</ele><time>2026-03-24T16:17:14Z</time></trkpt><trkpt lat="48.879190547185345" lon="2.3399262473937323"><ele>61.99999999999999</ele><time>2026-03-24T16:17:16Z</time></trkpt><trkpt lat="48.87930583069209" lon="2.339969383055547"><ele>63.0</ele><time>2026-03-24T16:17:18Z</time></trkpt><trkpt lat="48.879366388560676" lon="2.3400125987059033"><ele>64.0</ele><time>2026-03-24T16:17:19Z</time></trkpt><trkpt lat="48.87944307480031" lon="2.34001979768469"><ele>65.0</ele><time>2026-03-24T16:17:20Z</time></trkpt><trkpt lat="48.87954390912713" lon="2.3400730278894892"><ele>66.0</ele><time>2026-03-24T16:17:22Z</time></trkpt><trkpt lat="48.87960784213394" lon="2.3401046925117006"><ele>67.0</ele><time>2026-03-24T16:17:23.001Z</time></trkpt><trkpt lat="48.87967154858938" lon="2.3401378046463814"><ele>67.0</ele><time>2026-03-24T16:17:24.001Z</time></trkpt><trkpt lat="48.87979194496731" lon="2.3401792037421285"><ele>67.0</ele><time>2026-03-24T16:17:26.001Z</time></trkpt><trkpt lat="48.87991329816555" lon="2.3402483995445618"><ele>67.0</ele><time>2026-03-24T16:17:28.001Z</time></trkpt><trkpt lat="48.87997384136701" lon="2.340277980993484"><ele>67.0</ele><time>2026-03-24T16:17:29.001Z</time></trkpt><trkpt lat="48.880035034057066" lon="2.3403187364042983"><ele>67.0</ele><time>2026-03-24T16:17:30.001Z</time></trkpt><trkpt lat="48.88010378822288" lon="2.340332229421281"><ele>67.5</ele><time>2026-03-24T16:17:31.001Z</time></trkpt><trkpt lat="48.88021791731746" lon="2.340387692722283"><ele>68.0</ele><time>2026-03-24T16:17:33.001Z</time></trkpt><trkpt lat="48.88028292149894" lon="2.3403862959913107"><ele>68.5</ele><time>2026-03-24T16:17:34.001Z</time></trkpt><trkpt lat="48.880353102327845" lon="2.3404159850172643"><ele>69.0</ele><time>2026-03-24T16:17:35.001Z</time></trkpt><trkpt lat="48.88044338643344" lon="2.340411355855897"><ele>69.5</ele><time>2026-03-24T16:17:37.001Z</time></trkpt><trkpt lat="48.88052619717744" lon="2.3403749911599925"><ele>70.0</ele><time>2026-03-24T16:17:39.001Z</time></trkpt><trkpt lat="48.88062934112322" lon="2.3403443858392676"><ele>70.0</ele><time>2026-03-24T16:17:41.001Z</time></trkpt></trkseg></trk></gpx>